Air Quality Table

TIMESTAMP NO2 SO2 O3 PM10 PM2.5 TEMP HUM AIRPRES WS WD NO
2022-08-10 20:00 8.45 µg/m3 0.32 µg/m3 94.78 µg/m3 N/A N/A 26.6 °C 83.93 % 1,000.29 mbar 1.86 m/s 294 Deg 0.43 µg/m3
2022-08-10 19:00 3.08 µg/m3 0.38 µg/m3 97.45 µg/m3 N/A N/A 27.15 °C 80.45 % 1,000.34 mbar 1.45 m/s 229.39 Deg 0.5 µg/m3
2022-08-10 18:00 2 µg/m3 0.45 µg/m3 96.73 µg/m3 N/A N/A 27.75 °C 76.1 % 1,000.25 mbar 1.9 m/s 122.81 Deg 0.64 µg/m3
2022-08-10 17:00 1.96 µg/m3 0.5 µg/m3 97.97 µg/m3 N/A N/A 28.05 °C 73.68 % 1,000.40 mbar 2.88 m/s 173.9 Deg 0.68 µg/m3
2022-08-10 16:00 1.78 µg/m3 0.51 µg/m3 100.45 µg/m3 N/A N/A 27.94 °C 74.28 % 1,000.29 mbar 3.76 m/s 180.55 Deg 0.56 µg/m3
2022-08-10 15:00 1.85 µg/m3 0.44 µg/m3 105.39 µg/m3 N/A N/A 27.49 °C 74.66 % 1,000.45 mbar 3.67 m/s 131.06 Deg 0.47 µg/m3
2022-08-10 14:00 1.8 µg/m3 0.43 µg/m3 114.38 µg/m3 N/A N/A 27.75 °C 79.62 % 1,001.04 mbar 2.48 m/s 161.21 Deg 0.37 µg/m3
2022-08-10 13:00 2.25 µg/m3 0.41 µg/m3 120.7 µg/m3 N/A N/A 27.02 °C 79.34 % 1,001.26 mbar 2.23 m/s 237.58 Deg 0.36 µg/m3
2022-08-10 12:00 0.96 µg/m3 0.49 µg/m3 109.45 µg/m3 N/A N/A 26.56 °C 83.86 % 1,001.39 mbar 3.35 m/s 141.3 Deg 0.14 µg/m3
2022-08-10 11:00 0.36 µg/m3 0.61 µg/m3 109.69 µg/m3 N/A N/A 27.16 °C 81.56 % 1,001.38 mbar 3.01 m/s 290.52 Deg 0.1 µg/m3
2022-08-10 10:00 1.49 µg/m3 0.6 µg/m3 107.77 µg/m3 N/A N/A 27.25 °C 82.17 % 1,001.34 mbar 2.36 m/s 235.89 Deg 0.39 µg/m3
2022-08-10 09:00 0.63 µg/m3 0.45 µg/m3 108.16 µg/m3 N/A N/A 26.62 °C 86.98 % 1,001.23 mbar 2.19 m/s 263.2 Deg 0.39 µg/m3
2022-08-10 08:00 0.85 µg/m3 0.45 µg/m3 109.03 µg/m3 N/A N/A 26.54 °C 87.83 % 1,001.02 mbar 1.44 m/s 197.9 Deg 0.18 µg/m3
2022-08-10 07:00 0.53 µg/m3 0.39 µg/m3 101.5 µg/m3 N/A N/A 26.06 °C 89.95 % 1,000.78 mbar 0.96 m/s 284.87 Deg 0.1 µg/m3
2022-08-10 06:00 0.58 µg/m3 0.38 µg/m3 98.59 µg/m3 N/A N/A 25.61 °C 91.2 % 1,000.51 mbar 1.06 m/s 240.9 Deg 0.08 µg/m3
2022-08-10 05:00 1.04 µg/m3 0.34 µg/m3 101.98 µg/m3 N/A N/A 25.68 °C 93.35 % 1,000.16 mbar 0.82 m/s 242.51 Deg 0.06 µg/m3
2022-08-10 04:00 1.66 µg/m3 0.45 µg/m3 99.38 µg/m3 N/A N/A 25.78 °C 91.64 % 1,000.11 mbar 0.8 m/s 261.77 Deg 0.08 µg/m3
2022-08-10 03:00 3.81 µg/m3 0.51 µg/m3 98.48 µg/m3 N/A N/A 25.82 °C 90.41 % 1,000.35 mbar 0.56 m/s 229.5 Deg 0.06 µg/m3
2022-08-10 02:00 2.62 µg/m3 0.45 µg/m3 100 µg/m3 N/A N/A 26.01 °C 88.47 % 1,000.60 mbar 0.7 m/s 205.59 Deg 0.06 µg/m3
2022-08-10 01:00 0.74 µg/m3 0.45 µg/m3 100.44 µg/m3 N/A N/A 26.17 °C 87.68 % 1,000.83 mbar 1.07 m/s 128.08 Deg 0.07 µg/m3
2022-08-10 00:00 1.56 µg/m3 0.39 µg/m3 98.13 µg/m3 N/A N/A 26.08 °C 88.83 % 1,001.21 mbar 1.48 m/s 73.32 Deg 0.1 µg/m3
2022-08-09 23:00 0.81 µg/m3 0.45 µg/m3 109.17 µg/m3 N/A N/A 26.29 °C 85.88 % 1,001.27 mbar 1.01 m/s 174.54 Deg 0.11 µg/m3
2022-08-09 22:00 0.77 µg/m3 0.42 µg/m3 104.32 µg/m3 N/A N/A 26.31 °C 86.52 % 1,001.18 mbar 1.31 m/s 176.25 Deg 0.07 µg/m3
2022-08-09 21:00 0.12 µg/m3 0.36 µg/m3 103.57 µg/m3 N/A N/A 26.3 °C 88.47 % 1,001.07 mbar 1.02 m/s 187.52 Deg 0.06 µg/m3
2022-08-09 20:00 0.14 µg/m3 0.38 µg/m3 106.7 µg/m3 N/A N/A 26.56 °C 87.01 % 1,000.78 mbar 1.28 m/s 84.09 Deg 0.07 µg/m3
2022-08-09 19:00 -0.16 µg/m3 0.38 µg/m3 110.32 µg/m3 N/A N/A 27.18 °C 84.86 % 1,000.63 mbar 2.57 m/s 278.38 Deg 0.06 µg/m3
2022-08-09 18:00 -0.15 µg/m3 0.45 µg/m3 103.63 µg/m3 N/A N/A 27.69 °C 82.38 % 1,000.82 mbar 3.34 m/s 246.01 Deg 0.09 µg/m3
2022-08-09 17:00 -0.1 µg/m3 0.47 µg/m3 102.01 µg/m3 N/A N/A 27.89 °C 81.62 % 1,000.44 mbar 3.68 m/s 132.85 Deg 0.09 µg/m3
2022-08-09 16:00 0.15 µg/m3 0.56 µg/m3 93.47 µg/m3 N/A N/A 28.17 °C 79.65 % 1,000.37 mbar 4.16 m/s 151.28 Deg 0.13 µg/m3
2022-08-09 15:00 0.12 µg/m3 0.71 µg/m3 102.07 µg/m3 N/A N/A 28.48 °C 78.26 % 1,000.61 mbar 4.83 m/s 123.67 Deg 0.11 µg/m3
2022-08-09 14:00 0.07 µg/m3 0.51 µg/m3 91.53 µg/m3 N/A N/A 29.09 °C 76.11 % 1,000.94 mbar 4.73 m/s 182.3 Deg 0.13 µg/m3
2022-08-09 13:00 0.67 µg/m3 0.63 µg/m3 94.08 µg/m3 N/A N/A 28.63 °C 77.81 % 1,001.38 mbar 3.54 m/s 186.2 Deg 0.21 µg/m3
2022-08-09 12:00 0.18 µg/m3 0.56 µg/m3 93.78 µg/m3 N/A N/A 28.62 °C 77.06 % 1,001.74 mbar 1.88 m/s 169.34 Deg 0.12 µg/m3
2022-08-09 11:00 0.13 µg/m3 0.54 µg/m3 104.9 µg/m3 N/A N/A 27.9 °C 82.09 % 1,001.79 mbar 2.8 m/s 138.08 Deg 0.12 µg/m3
2022-08-09 10:00 0.35 µg/m3 1.12 µg/m3 139.67 µg/m3 N/A N/A 27.5 °C 83.21 % 1,001.53 mbar 2.96 m/s 152.41 Deg 0.1 µg/m3
2022-08-09 09:00 1.32 µg/m3 1.14 µg/m3 145.08 µg/m3 N/A N/A 27.4 °C 83.37 % 1,001.22 mbar 2.48 m/s 95.25 Deg 0.14 µg/m3
2022-08-09 08:00 1.04 µg/m3 1.47 µg/m3 137.81 µg/m3 N/A N/A 27.52 °C 80.42 % 1,001.03 mbar 1.06 m/s 177.6 Deg 0.12 µg/m3
2022-08-09 07:00 1.55 µg/m3 0.77 µg/m3 133.18 µg/m3 N/A N/A 26.4 °C 90.22 % 1,000.58 mbar 0.67 m/s 87.66 Deg 0.11 µg/m3
2022-08-09 06:00 1.49 µg/m3 0.77 µg/m3 139.04 µg/m3 N/A N/A 25.78 °C 91.8 % 1,000.09 mbar 0.12 m/s 148.38 Deg 0.06 µg/m3
2022-08-09 05:00 1.16 µg/m3 0.82 µg/m3 138.06 µg/m3 N/A N/A 25.99 °C 90.17 % 999.89 mbar 0.49 m/s 261.76 Deg 0.07 µg/m3
2022-08-09 04:00 1.71 µg/m3 0.88 µg/m3 123.82 µg/m3 N/A N/A 26.06 °C 87.76 % 999.86 mbar 0.75 m/s 147.18 Deg 0.06 µg/m3
2022-08-09 03:00 3.23 µg/m3 0.82 µg/m3 122.07 µg/m3 N/A N/A 26.04 °C 87.75 % 999.90 mbar 0.73 m/s 239.82 Deg 0.06 µg/m3
2022-08-09 02:00 1.87 µg/m3 0.67 µg/m3 128.9 µg/m3 N/A N/A 26.08 °C 87.68 % 1,000.07 mbar 0.77 m/s 300.25 Deg 0.07 µg/m3
2022-08-09 01:00 2.16 µg/m3 0.51 µg/m3 119.64 µg/m3 N/A N/A 26.17 °C 88.65 % 1,000.20 mbar 1 m/s 35.86 Deg 0.07 µg/m3
2022-08-09 00:00 3.12 µg/m3 0.49 µg/m3 108.9 µg/m3 N/A N/A 26.24 °C 88.67 % 1,000.68 mbar 1.87 m/s 40.59 Deg 0.07 µg/m3
2022-08-08 23:00 1.52 µg/m3 0.44 µg/m3 120.81 µg/m3 N/A N/A 26.41 °C 90.6 % 1,000.85 mbar 1.69 m/s 38.53 Deg 0.07 µg/m3
2022-08-08 22:00 2.47 µg/m3 0.62 µg/m3 124.65 µg/m3 N/A N/A 26.74 °C 87.31 % 1,000.70 mbar 1.08 m/s 98.82 Deg 0.07 µg/m3
2022-08-08 21:00 1.33 µg/m3 0.74 µg/m3 110.03 µg/m3 N/A N/A 26.99 °C 83.4 % 1,000.67 mbar 1.47 m/s 168.24 Deg 0.06 µg/m3
2022-08-08 20:00 0.75 µg/m3 1.09 µg/m3 127.33 µg/m3 N/A N/A 27.69 °C 76.3 % 1,000.05 mbar 0.93 m/s 252.09 Deg 0.06 µg/m3
2022-08-08 19:00 0.75 µg/m3 1.01 µg/m3 127.33 µg/m3 N/A N/A 27.92 °C 79.48 % 999.54 mbar 1.95 m/s 265.92 Deg 0.08 µg/m3
2022-08-08 18:00 0.78 µg/m3 1.27 µg/m3 132.08 µg/m3 N/A N/A 28.82 °C 75.67 % 999.27 mbar 2.74 m/s 301.46 Deg 0.11 µg/m3
2022-08-08 17:00 1.67 µg/m3 1.71 µg/m3 141 µg/m3 N/A N/A 29.51 °C 69.08 % 999.16 mbar 2.6 m/s 195.73 Deg 0.16 µg/m3
2022-08-08 16:00 1.98 µg/m3 1.83 µg/m3 139.2 µg/m3 N/A N/A 30.29 °C 63.81 % 999.16 mbar 2.76 m/s 257.64 Deg 0.2 µg/m3
2022-08-08 15:00 1.61 µg/m3 1.84 µg/m3 139.15 µg/m3 N/A N/A 30.9 °C 59.19 % 999.01 mbar 3.32 m/s 201.65 Deg 0.17 µg/m3
2022-08-08 14:00 2.66 µg/m3 2.41 µg/m3 138.57 µg/m3 N/A N/A 30.28 °C 67.37 % 999.38 mbar 5.28 m/s 241.82 Deg 0.26 µg/m3
2022-08-08 13:00 1.83 µg/m3 2.29 µg/m3 139.32 µg/m3 N/A N/A 30.4 °C 62.91 % 999.35 mbar 5.15 m/s 195.61 Deg 0.17 µg/m3
2022-08-08 12:00 1.74 µg/m3 2.3 µg/m3 132.19 µg/m3 N/A N/A 30.22 °C 61.4 % 999.52 mbar 5.47 m/s 235.25 Deg 0.17 µg/m3
2022-08-08 11:00 1.72 µg/m3 2.05 µg/m3 121.81 µg/m3 N/A N/A 30.28 °C 59.64 % 999.50 mbar 5.51 m/s 144.59 Deg 0.25 µg/m3
2022-08-08 10:00 4.09 µg/m3 2.3 µg/m3 118.19 µg/m3 N/A N/A 30.04 °C 59.6 % 999.47 mbar 4.9 m/s 236.77 Deg 0.29 µg/m3
2022-08-08 09:00 0 µg/m3 1.04 µg/m3 0 µg/m3 N/A N/A 30.05 °C 57.56 % 999.18 mbar 3.86 m/s 209.59 Deg 0 µg/m3
2022-08-08 08:00 0 µg/m3 0 µg/m3 0 µg/m3 N/A N/A 27.87 °C 76.39 % 998.78 mbar 2.79 m/s 149.48 Deg 0 µg/m3
2022-08-08 07:00 6.25 µg/m3 0.19 µg/m3 62.39 µg/m3 N/A N/A 25.91 °C 94.54 % 998.23 mbar 1.55 m/s 120.58 Deg 0.55 µg/m3
2022-08-08 06:00 2.26 µg/m3 0.16 µg/m3 65.31 µg/m3 N/A N/A 25.15 °C 97.65 % 997.86 mbar 1.84 m/s 148.11 Deg 0.11 µg/m3
2022-08-08 05:00 0.87 µg/m3 0.16 µg/m3 75.97 µg/m3 N/A N/A 25.56 °C 98.33 % 997.34 mbar 1.13 m/s 130.52 Deg 0.07 µg/m3
2022-08-08 04:00 1.63 µg/m3 0.17 µg/m3 70.5 µg/m3 N/A N/A 25.73 °C 97.81 % 997.16 mbar 2.08 m/s 198.75 Deg 0.08 µg/m3
2022-08-08 03:00 3.65 µg/m3 0.16 µg/m3 72.69 µg/m3 N/A N/A 25.88 °C 97.82 % 997.33 mbar 2.08 m/s 193.93 Deg 0.07 µg/m3
2022-08-08 02:00 1.21 µg/m3 0.19 µg/m3 77.44 µg/m3 N/A N/A 25.85 °C 97.16 % 997.41 mbar 1.27 m/s 224.14 Deg 0.06 µg/m3
2022-08-08 01:00 0.87 µg/m3 0.16 µg/m3 79.26 µg/m3 N/A N/A 26.04 °C 96.22 % 997.74 mbar 1.13 m/s 252.78 Deg 0.06 µg/m3
2022-08-08 00:00 1.59 µg/m3 0.16 µg/m3 76.21 µg/m3 N/A N/A 26.12 °C 95.34 % 998.08 mbar 2.02 m/s 245.08 Deg 0.07 µg/m3
2022-08-07 23:00 1.42 µg/m3 0.13 µg/m3 82.46 µg/m3 N/A N/A 26.17 °C 94.55 % 998.11 mbar 2.13 m/s 257.95 Deg 0.07 µg/m3
2022-08-07 22:00 0.86 µg/m3 0.15 µg/m3 81 µg/m3 N/A N/A 26.27 °C 93.19 % 998.19 mbar 2.24 m/s 270.76 Deg 0.09 µg/m3
2022-08-07 21:00 7.23 µg/m3 0.18 µg/m3 78.87 µg/m3 N/A N/A 26.35 °C 91.65 % 998.07 mbar 2.3 m/s 291.49 Deg 0.09 µg/m3
2022-08-07 20:00 4.45 µg/m3 0.15 µg/m3 88.68 µg/m3 N/A N/A 26.47 °C 90.46 % 997.65 mbar 2.54 m/s 307.61 Deg 0.08 µg/m3
2022-08-07 19:00 1.84 µg/m3 0.19 µg/m3 97.07 µg/m3 N/A N/A 26.81 °C 89.98 % 997.29 mbar 3.71 m/s 314.53 Deg 0.1 µg/m3
2022-08-07 18:00 3.28 µg/m3 0.4 µg/m3 107.54 µg/m3 N/A N/A 27.31 °C 86.58 % 997.10 mbar 4.16 m/s 300.22 Deg 0.29 µg/m3
2022-08-07 17:00 2.45 µg/m3 0.77 µg/m3 119.46 µg/m3 N/A N/A 27.85 °C 78 % 997.26 mbar 4.6 m/s 220.09 Deg 0.23 µg/m3
2022-08-07 16:00 2.33 µg/m3 1.22 µg/m3 131.16 µg/m3 N/A N/A 28.51 °C 66.08 % 997.39 mbar 4.03 m/s 233.14 Deg 0.25 µg/m3
2022-08-07 15:00 2.76 µg/m3 1.27 µg/m3 138.62 µg/m3 N/A N/A 28.22 °C 70.15 % 997.50 mbar 4.07 m/s 189.32 Deg 0.31 µg/m3
2022-08-07 14:00 1.57 µg/m3 1.11 µg/m3 132.23 µg/m3 N/A N/A 28.79 °C 67.07 % 997.82 mbar 3.3 m/s 239.9 Deg 0.17 µg/m3
2022-08-07 13:00 1.49 µg/m3 0.95 µg/m3 118.91 µg/m3 N/A N/A 28.49 °C 66.68 % 998.28 mbar 3.12 m/s 275.59 Deg 0.15 µg/m3
2022-08-07 12:00 1.93 µg/m3 1.03 µg/m3 125.66 µg/m3 N/A N/A 28.56 °C 66.09 % 998.63 mbar 3.11 m/s 189.26 Deg 0.21 µg/m3
2022-08-07 11:00 3.19 µg/m3 1.04 µg/m3 120.83 µg/m3 N/A N/A 28 °C 70.14 % 998.84 mbar 3.71 m/s 233.24 Deg 0.39 µg/m3
2022-08-07 10:00 3.97 µg/m3 1.19 µg/m3 111.33 µg/m3 N/A N/A 28.03 °C 72.61 % 998.95 mbar 3.39 m/s 209.57 Deg 0.55 µg/m3
2022-08-07 09:00 2.48 µg/m3 1.92 µg/m3 111.52 µg/m3 N/A N/A 28.36 °C 67.01 % 998.53 mbar 2.44 m/s 284.16 Deg 0.31 µg/m3
2022-08-07 08:00 3.01 µg/m3 1.66 µg/m3 100.79 µg/m3 N/A N/A 27.4 °C 75.77 % 998.14 mbar 3.69 m/s 179.88 Deg 0.34 µg/m3
2022-08-07 07:00 7.42 µg/m3 1.18 µg/m3 88.85 µg/m3 N/A N/A 26.51 °C 85.58 % 997.81 mbar 4.19 m/s 15.95 Deg 0.51 µg/m3
2022-08-07 06:00 4.53 µg/m3 0.69 µg/m3 85.41 µg/m3 N/A N/A 25.92 °C 87.54 % 997.34 mbar 4.64 m/s 25.33 Deg 0.15 µg/m3
2022-08-07 05:00 3.96 µg/m3 0.15 µg/m3 91.47 µg/m3 N/A N/A 25.95 °C 92.31 % 997.04 mbar 3.82 m/s 13.19 Deg 0.1 µg/m3
2022-08-07 04:00 6.11 µg/m3 0.35 µg/m3 90.95 µg/m3 N/A N/A 26.04 °C 94.68 % 997.12 mbar 3.22 m/s 177.22 Deg 0.09 µg/m3
2022-08-07 03:00 5.96 µg/m3 0.77 µg/m3 98.89 µg/m3 N/A N/A 26.25 °C 88.44 % 997.50 mbar 2.37 m/s 339.73 Deg 0.08 µg/m3
2022-08-07 02:00 7.21 µg/m3 1.04 µg/m3 95.63 µg/m3 N/A N/A 26.77 °C 80.83 % 997.76 mbar 4.05 m/s 319.28 Deg 0.1 µg/m3
2022-08-07 01:00 2.52 µg/m3 0.73 µg/m3 101.68 µg/m3 N/A N/A 26.88 °C 81.17 % 998.28 mbar 4.08 m/s 282.39 Deg 0.09 µg/m3
2022-08-07 00:00 0.03 µg/m3 0.65 µg/m3 95.82 µg/m3 N/A N/A 26.8 °C 84 % 998.95 mbar 4.58 m/s 262.07 Deg 0.07 µg/m3
2022-08-06 23:00 1.01 µg/m3 0.57 µg/m3 95.21 µg/m3 N/A N/A 26.64 °C 88.09 % 999.06 mbar 5.2 m/s 263.88 Deg 0.08 µg/m3
2022-08-06 22:00 0.63 µg/m3 0.55 µg/m3 91.45 µg/m3 N/A N/A 26.7 °C 87.16 % 999.21 mbar 5.11 m/s 275.19 Deg 0.09 µg/m3
2022-08-06 21:00 -0.23 µg/m3 0.41 µg/m3 84.37 µg/m3 N/A N/A 26.91 °C 85.05 % 999.32 mbar 4.08 m/s 283.63 Deg 0.09 µg/m3
2022-08-06 20:00 -0.09 µg/m3 0.3 µg/m3 85.05 µg/m3 N/A N/A 27.12 °C 83.64 % 999.05 mbar 4.39 m/s 282.83 Deg 0.09 µg/m3
2022-08-06 19:00 -0.2 µg/m3 0.2 µg/m3 86.29 µg/m3 N/A N/A 27.64 °C 82.82 % 998.93 mbar 4.09 m/s 272.51 Deg 0.08 µg/m3
2022-08-06 18:00 -0.12 µg/m3 0.17 µg/m3 86.13 µg/m3 N/A N/A 28.11 °C 80.85 % 998.74 mbar 4.57 m/s 243.64 Deg 0.11 µg/m3
2022-08-06 17:00 0.43 µg/m3 0.23 µg/m3 92 µg/m3 N/A N/A 28.28 °C 82.96 % 998.80 mbar 4.97 m/s 179 Deg 0.15 µg/m3
2022-08-06 16:00 0.98 µg/m3 0.51 µg/m3 91.18 µg/m3 N/A N/A 28.46 °C 77.5 % 999.20 mbar 4.87 m/s 174.99 Deg 0.24 µg/m3
2022-08-06 15:00 0.73 µg/m3 0.73 µg/m3 106.75 µg/m3 N/A N/A 28.4 °C 74.5 % 999.65 mbar 5.23 m/s 188.23 Deg 0.21 µg/m3
2022-08-06 14:00 0.65 µg/m3 0.72 µg/m3 117.08 µg/m3 N/A N/A 28.37 °C 75.45 % 1,000.07 mbar 4.82 m/s 193.9 Deg 0.14 µg/m3
2022-08-06 13:00 1.17 µg/m3 0.86 µg/m3 124.16 µg/m3 N/A N/A 28.23 °C 75.3 % 1,000.29 mbar 4.57 m/s 160.15 Deg 0.21 µg/m3
2022-08-06 12:00 2.32 µg/m3 0.98 µg/m3 121.02 µg/m3 N/A N/A 28.06 °C 75.42 % 1,000.44 mbar 4.54 m/s 178.21 Deg 0.37 µg/m3
2022-08-06 11:00 4.83 µg/m3 1.13 µg/m3 106.93 µg/m3 N/A N/A 27.98 °C 78.51 % 1,000.55 mbar 4.52 m/s 183.3 Deg 0.88 µg/m3
2022-08-06 10:00 3.85 µg/m3 0.9 µg/m3 105.63 µg/m3 N/A N/A 27.4 °C 81.05 % 1,000.45 mbar 4.3 m/s 220.62 Deg 0.71 µg/m3
2022-08-06 09:00 5.11 µg/m3 1.01 µg/m3 99.58 µg/m3 N/A N/A 27.19 °C 81.71 % 1,000.26 mbar 3.87 m/s 259.02 Deg 0.86 µg/m3
2022-08-06 08:00 4.46 µg/m3 0.63 µg/m3 97.69 µg/m3 N/A N/A 26.7 °C 85.47 % 1,000.17 mbar 3.81 m/s 249.11 Deg 0.62 µg/m3
2022-08-06 07:00 5.43 µg/m3 0.53 µg/m3 94.1 µg/m3 N/A N/A 26.12 °C 88.28 % 1,000.21 mbar 3.44 m/s 282.03 Deg 0.48 µg/m3
2022-08-06 06:00 0.08 µg/m3 0.15 µg/m3 100.2 µg/m3 N/A N/A 25.69 °C 94.58 % 1,000.05 mbar 2.96 m/s 292.56 Deg 0.09 µg/m3
2022-08-06 05:00 0.03 µg/m3 0.34 µg/m3 104.54 µg/m3 N/A N/A 26 °C 90.77 % 999.79 mbar 2.92 m/s 292.18 Deg 0.08 µg/m3
2022-08-06 04:00 0.32 µg/m3 0.33 µg/m3 100.88 µg/m3 N/A N/A 26.01 °C 89.54 % 999.87 mbar 2.58 m/s 297.17 Deg 0.06 µg/m3
2022-08-06 03:00 2.13 µg/m3 0.32 µg/m3 101.54 µg/m3 N/A N/A 26.09 °C 88.74 % 1,000.02 mbar 2.63 m/s 293.5 Deg 0.07 µg/m3
2022-08-06 02:00 0.38 µg/m3 0.32 µg/m3 101.9 µg/m3 N/A N/A 26.14 °C 88.8 % 1,000.09 mbar 2.67 m/s 282.84 Deg 0.08 µg/m3
2022-08-06 01:00 -0.08 µg/m3 0.34 µg/m3 95.51 µg/m3 N/A N/A 26.24 °C 89.99 % 1,000.28 mbar 3.44 m/s 260.43 Deg 0.07 µg/m3
2022-08-06 00:00 -0.08 µg/m3 0.39 µg/m3 90.71 µg/m3 N/A N/A 26.07 °C 89.09 % 1,000.59 mbar 2.72 m/s 279.17 Deg 0.08 µg/m3
2022-08-05 23:00 0.11 µg/m3 0.37 µg/m3 92.83 µg/m3 N/A N/A 26.19 °C 88.13 % 1,000.66 mbar 2.43 m/s 283.98 Deg 0.09 µg/m3
2022-08-05 22:00 -0 µg/m3 0.38 µg/m3 101.53 µg/m3 N/A N/A 26.41 °C 87.15 % 1,000.87 mbar 2.54 m/s 284.78 Deg 0.08 µg/m3
2022-08-05 21:00 0.06 µg/m3 0.44 µg/m3 103.59 µg/m3 N/A N/A 26.56 °C 84.97 % 1,000.89 mbar 2.11 m/s 303.02 Deg 0.08 µg/m3
2022-08-05 20:00 0.08 µg/m3 0.48 µg/m3 102.69 µg/m3 N/A N/A 26.85 °C 81.31 % 1,000.45 mbar 2.26 m/s 275.54 Deg 0.08 µg/m3
2022-08-05 19:00 0.19 µg/m3 0.63 µg/m3 107.4 µg/m3 N/A N/A 27.72 °C 74.47 % 1,000.22 mbar 3.48 m/s 170.2 Deg 0.09 µg/m3
2022-08-05 18:00 0.33 µg/m3 0.72 µg/m3 113.59 µg/m3 N/A N/A 28.23 °C 69.85 % 1,000.35 mbar 4.39 m/s 164.58 Deg 0.11 µg/m3
2022-08-05 17:00 1.26 µg/m3 1.11 µg/m3 130.61 µg/m3 N/A N/A 28.41 °C 67.4 % 1,000.63 mbar 4.6 m/s 152.25 Deg 0.17 µg/m3
2022-08-05 16:00 2.62 µg/m3 1.32 µg/m3 125.12 µg/m3 N/A N/A 28.56 °C 63.51 % 1,000.94 mbar 4.5 m/s 234.83 Deg 0.35 µg/m3
2022-08-05 15:00 0.96 µg/m3 0.96 µg/m3 126.43 µg/m3 N/A N/A 28.3 °C 68.29 % 1,001.34 mbar 4.48 m/s 204.79 Deg 0.19 µg/m3
2022-08-05 14:00 1.01 µg/m3 0.99 µg/m3 123.45 µg/m3 N/A N/A 28.03 °C 72.23 % 1,001.65 mbar 3.97 m/s 153.41 Deg 0.19 µg/m3
2022-08-05 13:00 0.65 µg/m3 0.89 µg/m3 122.85 µg/m3 N/A N/A 27.96 °C 73.59 % 1,001.91 mbar 4.04 m/s 239.48 Deg 0.15 µg/m3
2022-08-05 12:00 2.68 µg/m3 0.85 µg/m3 107.43 µg/m3 N/A N/A 27.71 °C 79.29 % 1,002.08 mbar 3.97 m/s 244.57 Deg 0.61 µg/m3
2022-08-05 11:00 10.58 µg/m3 0.57 µg/m3 82.75 µg/m3 N/A N/A 27.48 °C 83.25 % 1,002.17 mbar 3.97 m/s 285.84 Deg 2.75 µg/m3
2022-08-05 10:00 7.33 µg/m3 0.69 µg/m3 81.45 µg/m3 N/A N/A 27.28 °C 83.21 % 1,002.06 mbar 3.73 m/s 281.07 Deg 1.86 µg/m3
2022-08-05 09:00 3.8 µg/m3 1.14 µg/m3 91.08 µg/m3 N/A N/A 27.43 °C 74.56 % 1,001.97 mbar 3.42 m/s 245.16 Deg 0.68 µg/m3
2022-08-05 08:00 4.21 µg/m3 1.01 µg/m3 86.8 µg/m3 N/A N/A 27.12 °C 75.84 % 1,001.58 mbar 2.85 m/s 220.76 Deg 0.84 µg/m3
2022-08-05 07:00 4.81 µg/m3 0.74 µg/m3 77.88 µg/m3 N/A N/A 26.47 °C 83.9 % 1,001.25 mbar 2.29 m/s 281.29 Deg 0.68 µg/m3
2022-08-05 06:00 3.3 µg/m3 0.79 µg/m3 83.69 µg/m3 N/A N/A 25.84 °C 85.11 % 1,001.15 mbar 1.9 m/s 305.47 Deg 0.09 µg/m3
2022-08-05 05:00 2.32 µg/m3 0.94 µg/m3 93.52 µg/m3 N/A N/A 25.99 °C 84.24 % 1,001.01 mbar 1.78 m/s 321.56 Deg 0.06 µg/m3
2022-08-05 04:00 3.04 µg/m3 1.07 µg/m3 99.69 µg/m3 N/A N/A 26.19 °C 83.68 % 1,000.92 mbar 1.78 m/s 332.61 Deg 0.07 µg/m3
2022-08-05 03:00 4.35 µg/m3 0.89 µg/m3 98.88 µg/m3 N/A N/A 26.15 °C 83.69 % 1,001.20 mbar 2.14 m/s 339.78 Deg 0.07 µg/m3
2022-08-05 02:00 4.42 µg/m3 1.1 µg/m3 108.34 µg/m3 N/A N/A 26.23 °C 85.15 % 1,001.55 mbar 2.29 m/s 334.56 Deg 0.08 µg/m3
2022-08-05 01:00 2.64 µg/m3 1.09 µg/m3 134.18 µg/m3 N/A N/A 26.38 °C 83.82 % 1,001.82 mbar 1.94 m/s 353.99 Deg 0.07 µg/m3
2022-08-05 00:00 2.75 µg/m3 0.92 µg/m3 137.07 µg/m3 N/A N/A 26.44 °C 83.31 % 1,002.01 mbar 1.24 m/s 85.02 Deg 0.07 µg/m3
2022-08-04 23:00 1 µg/m3 1.01 µg/m3 141.07 µg/m3 N/A N/A 27.02 °C 73.94 % 1,002.16 mbar 1.02 m/s 129.25 Deg 0.05 µg/m3
2022-08-04 22:00 1.05 µg/m3 0.99 µg/m3 132.04 µg/m3 N/A N/A 27.02 °C 72.07 % 1,001.93 mbar 1.63 m/s 211.18 Deg 0.06 µg/m3
2022-08-04 21:00 1.96 µg/m3 0.96 µg/m3 134.35 µg/m3 N/A N/A 26.8 °C 79.25 % 1,001.82 mbar 2.61 m/s 233.71 Deg 0.07 µg/m3
2022-08-04 20:00 6.99 µg/m3 1.32 µg/m3 134.88 µg/m3 N/A N/A 27.09 °C 77.65 % 1,001.37 mbar 3.18 m/s 105.03 Deg 0.07 µg/m3
2022-08-04 19:00 1.37 µg/m3 1.57 µg/m3 156.01 µg/m3 N/A N/A 27.68 °C 76.78 % 1,001.31 mbar 3.94 m/s 83.6 Deg 0.07 µg/m3
2022-08-04 18:00 1.51 µg/m3 1.86 µg/m3 162.16 µg/m3 N/A N/A 28.2 °C 73.81 % 1,001.34 mbar 3.74 m/s 202.73 Deg 0.11 µg/m3
2022-08-04 17:00 0.85 µg/m3 1.68 µg/m3 151.57 µg/m3 N/A N/A 28.95 °C 70.52 % 1,001.29 mbar 3.02 m/s 214.49 Deg 0.11 µg/m3
2022-08-04 16:00 1.08 µg/m3 1.64 µg/m3 154.68 µg/m3 N/A N/A 29.15 °C 68.13 % 1,001.31 mbar 2.63 m/s 192.24 Deg 0.12 µg/m3
2022-08-04 15:00 1.63 µg/m3 1.63 µg/m3 154.46 µg/m3 N/A N/A 29.67 °C 66.81 % 1,001.49 mbar 2.63 m/s 165.45 Deg 0.16 µg/m3
2022-08-04 14:00 1.59 µg/m3 1.85 µg/m3 149.87 µg/m3 N/A N/A 29.19 °C 67.29 % 1,001.69 mbar 3.5 m/s 126.74 Deg 0.17 µg/m3
2022-08-04 13:00 1.68 µg/m3 2.03 µg/m3 145.35 µg/m3 N/A N/A 29.38 °C 63.67 % 1,002.06 mbar 3.21 m/s 130.89 Deg 0.16 µg/m3
2022-08-04 12:00 2.1 µg/m3 2.21 µg/m3 143.65 µg/m3 N/A N/A 29.64 °C 62.74 % 1,002.22 mbar 2.77 m/s 196.86 Deg 0.2 µg/m3
2022-08-04 11:00 1.72 µg/m3 1.75 µg/m3 137.22 µg/m3 N/A N/A 28.85 °C 69.61 % 1,002.19 mbar 4.03 m/s 234.5 Deg 0.19 µg/m3
2022-08-04 10:00 1.2 µg/m3 1.43 µg/m3 130.58 µg/m3 N/A N/A 28.34 °C 69.73 % 1,002.01 mbar 3.91 m/s 169.32 Deg 0.25 µg/m3
2022-08-04 09:00 7.6 µg/m3 1.8 µg/m3 115.19 µg/m3 N/A N/A 27.59 °C 75.77 % 1,001.65 mbar 3.36 m/s 266.36 Deg 1.09 µg/m3
2022-08-04 08:00 6.49 µg/m3 1.39 µg/m3 108.77 µg/m3 N/A N/A 26.93 °C 77.37 % 1,001.26 mbar 3.22 m/s 314.7 Deg 0.77 µg/m3
2022-08-04 07:00 3.56 µg/m3 0.81 µg/m3 100.81 µg/m3 N/A N/A 26.1 °C 82 % 1,000.82 mbar 2.58 m/s 95.81 Deg 0.26 µg/m3
2022-08-04 06:00 2.37 µg/m3 0.68 µg/m3 107.7 µg/m3 N/A N/A 25.51 °C 82.49 % 1,000.62 mbar 1.76 m/s 100.94 Deg 0.09 µg/m3
2022-08-04 05:00 2.15 µg/m3 0.95 µg/m3 113.32 µg/m3 N/A N/A 25.6 °C 77.04 % 1,000.46 mbar 1.18 m/s 196.37 Deg 0.06 µg/m3
2022-08-04 04:00 3.16 µg/m3 1.16 µg/m3 109.08 µg/m3 N/A N/A 25.7 °C 74.6 % 1,000.50 mbar 0.36 m/s 118.95 Deg 0.07 µg/m3
2022-08-04 03:00 4.94 µg/m3 1.28 µg/m3 105.77 µg/m3 N/A N/A 25.62 °C 80.45 % 1,000.69 mbar 0.52 m/s 157.11 Deg 0.08 µg/m3
2022-08-04 02:00 4.68 µg/m3 1.3 µg/m3 105.61 µg/m3 N/A N/A 25.75 °C 80.56 % 1,000.88 mbar 0.49 m/s 115.77 Deg 0.07 µg/m3
2022-08-04 01:00 9.81 µg/m3 2.2 µg/m3 87.55 µg/m3 N/A N/A 25.94 °C 79.79 % 1,001.01 mbar 1.39 m/s 108.38 Deg 0.08 µg/m3
2022-08-04 00:00 4.97 µg/m3 1.04 µg/m3 105.18 µg/m3 N/A N/A 26.07 °C 79.33 % 1,001.13 mbar 1.27 m/s 141.54 Deg 0.08 µg/m3
2022-08-03 23:00 3.31 µg/m3 0.72 µg/m3 104.13 µg/m3 N/A N/A 26.05 °C 78.19 % 1,001.04 mbar 1.8 m/s 57.91 Deg 0.07 µg/m3
2022-08-03 22:00 2.86 µg/m3 0.78 µg/m3 104.54 µg/m3 N/A N/A 26.35 °C 76.07 % 1,000.89 mbar 2.01 m/s 71.06 Deg 0.07 µg/m3
2022-08-03 21:00 3.75 µg/m3 0.9 µg/m3 113.27 µg/m3 N/A N/A 26.73 °C 75.32 % 1,000.78 mbar 2.16 m/s 121.49 Deg 0.07 µg/m3
2022-08-03 20:00 7.51 µg/m3 1.04 µg/m3 115.83 µg/m3 N/A N/A 27.07 °C 75.05 % 1,000.35 mbar 2.85 m/s 97.08 Deg 0.11 µg/m3
2022-08-03 19:00 2.23 µg/m3 1.16 µg/m3 132.81 µg/m3 N/A N/A 27.94 °C 68.3 % 1,000.15 mbar 3.51 m/s 174.58 Deg 0.16 µg/m3
2022-08-03 18:00 1.85 µg/m3 1.43 µg/m3 132.1 µg/m3 N/A N/A 29.24 °C 58.8 % 999.99 mbar 3.76 m/s 229.48 Deg 0.15 µg/m3
2022-08-03 17:00 1.62 µg/m3 1.98 µg/m3 142.58 µg/m3 N/A N/A 30.18 °C 51.34 % 1,000.09 mbar 2.31 m/s 229.49 Deg 0.14 µg/m3
2022-08-03 16:00 2.31 µg/m3 2.15 µg/m3 143.43 µg/m3 N/A N/A 30.1 °C 52.52 % 1,000.16 mbar 1.55 m/s 132.1 Deg 0.32 µg/m3
2022-08-03 15:00 2.04 µg/m3 2.24 µg/m3 142.88 µg/m3 N/A N/A 30.03 °C 54.45 % 1,000.27 mbar 3.27 m/s 111.37 Deg 0.17 µg/m3
2022-08-03 14:00 1.74 µg/m3 2.31 µg/m3 130.43 µg/m3 N/A N/A 31.01 °C 44.81 % 1,000.58 mbar 4.08 m/s 278.11 Deg 0.14 µg/m3
2022-08-03 13:00 1.94 µg/m3 2.85 µg/m3 131.93 µg/m3 N/A N/A 30.55 °C 45.26 % 1,000.82 mbar 4.7 m/s 293.02 Deg 0.15 µg/m3
2022-08-03 12:00 1.9 µg/m3 2.85 µg/m3 131.63 µg/m3 N/A N/A 30.18 °C 51.26 % 1,001.07 mbar 4.9 m/s 260.83 Deg 0.17 µg/m3
2022-08-03 11:00 2.7 µg/m3 3.78 µg/m3 129.67 µg/m3 N/A N/A 29.76 °C 55.14 % 1,001.24 mbar 5.18 m/s 310.26 Deg 0.27 µg/m3
2022-08-03 10:00 4.44 µg/m3 4.02 µg/m3 120.15 µg/m3 N/A N/A 29.09 °C 58.08 % 1,001.18 mbar 4.66 m/s 327.85 Deg 0.6 µg/m3
2022-08-03 09:00 8.13 µg/m3 1.98 µg/m3 103.6 µg/m3 N/A N/A 28.4 °C 65.34 % 1,000.92 mbar 3.6 m/s 239.8 Deg 1.33 µg/m3
2022-08-03 08:00 8.7 µg/m3 0.94 µg/m3 90.63 µg/m3 N/A N/A 27.09 °C 81.55 % 1,000.61 mbar 3.14 m/s 176.78 Deg 1.27 µg/m3
2022-08-03 07:00 6.74 µg/m3 0.68 µg/m3 86.06 µg/m3 N/A N/A 26.41 °C 82.41 % 1,000.19 mbar 2.33 m/s 167.36 Deg 0.59 µg/m3
2022-08-03 06:00 1.6 µg/m3 0.48 µg/m3 89.45 µg/m3 N/A N/A 25.59 °C 84.89 % 999.69 mbar 2.06 m/s 15.59 Deg 0.1 µg/m3
2022-08-03 05:00 0.88 µg/m3 0.42 µg/m3 94.11 µg/m3 N/A N/A 25.66 °C 84.48 % 999.35 mbar 1.83 m/s 179.13 Deg 0.07 µg/m3
2022-08-03 04:00 0.78 µg/m3 0.47 µg/m3 97.49 µg/m3 N/A N/A 25.67 °C 80.77 % 999.35 mbar 1.16 m/s 290.89 Deg 0.07 µg/m3
2022-08-03 03:00 2.32 µg/m3 0.46 µg/m3 99.39 µg/m3 N/A N/A 25.98 °C 78.45 % 999.30 mbar 0.85 m/s 222.68 Deg 0.05 µg/m3
2022-08-03 02:00 1.52 µg/m3 0.47 µg/m3 97.08 µg/m3 N/A N/A 26.09 °C 70.75 % 999.55 mbar 0.79 m/s 163.38 Deg 0.06 µg/m3
2022-08-03 01:00 1.54 µg/m3 0.53 µg/m3 102.31 µg/m3 N/A N/A 25.68 °C 84.24 % 999.68 mbar 1.14 m/s 209.78 Deg 0.05 µg/m3
2022-08-03 00:00 1.8 µg/m3 0.47 µg/m3 99.46 µg/m3 N/A N/A 25.81 °C 84.94 % 999.86 mbar 1.94 m/s 100.77 Deg 0.07 µg/m3
2022-08-02 23:00 0.7 µg/m3 0.43 µg/m3 102.32 µg/m3 N/A N/A 25.95 °C 84.31 % 999.95 mbar 1.59 m/s 82.65 Deg 0.05 µg/m3
2022-08-02 22:00 7.17 µg/m3 0.29 µg/m3 82.65 µg/m3 N/A N/A 25.99 °C 84.43 % 999.98 mbar 1.25 m/s 51.46 Deg 0.08 µg/m3
2022-08-02 21:00 0.1 µg/m3 0.32 µg/m3 95.67 µg/m3 N/A N/A 26.26 °C 85.02 % 999.78 mbar 2.06 m/s 268.12 Deg 0.08 µg/m3
2022-08-02 20:00 -0.26 µg/m3 0.34 µg/m3 92.51 µg/m3 N/A N/A 26.63 °C 84.17 % 999.40 mbar 2.41 m/s 310.4 Deg 0.08 µg/m3
2022-08-02 19:00 -0.32 µg/m3 0.32 µg/m3 87.84 µg/m3 N/A N/A 27.4 °C 80.04 % 999.30 mbar 2.6 m/s 223.75 Deg 0.07 µg/m3
2022-08-02 18:00 -0.21 µg/m3 0.39 µg/m3 87.59 µg/m3 N/A N/A 28.05 °C 75.47 % 999.21 mbar 2.72 m/s 207 Deg 0.1 µg/m3
2022-08-02 17:00 -0.15 µg/m3 0.37 µg/m3 85.42 µg/m3 N/A N/A 28.3 °C 73.13 % 999.14 mbar 3.2 m/s 183.94 Deg 0.09 µg/m3
2022-08-02 16:00 0.05 µg/m3 0.36 µg/m3 85.78 µg/m3 N/A N/A 28.18 °C 75.53 % 999.06 mbar 4.57 m/s 109.26 Deg 0.1 µg/m3
2022-08-02 15:00 0.21 µg/m3 0.43 µg/m3 90.76 µg/m3 N/A N/A 28.2 °C 75.21 % 999.40 mbar 3.73 m/s 101.86 Deg 0.13 µg/m3
2022-08-02 14:00 -0.02 µg/m3 0.35 µg/m3 87.82 µg/m3 N/A N/A 28.1 °C 76.18 % 999.64 mbar 3.83 m/s 154.65 Deg 0.1 µg/m3
2022-08-02 13:00 -0.02 µg/m3 0.43 µg/m3 91.28 µg/m3 N/A N/A 28.06 °C 77.15 % 999.84 mbar 3.56 m/s 207.81 Deg 0.09 µg/m3
2022-08-02 12:00 0.01 µg/m3 0.44 µg/m3 94.42 µg/m3 N/A N/A 28.14 °C 77.79 % 999.92 mbar 2.3 m/s 193.23 Deg 0.1 µg/m3
2022-08-02 11:00 0.01 µg/m3 0.48 µg/m3 96.61 µg/m3 N/A N/A 27.36 °C 81.36 % 1,000.12 mbar 1.72 m/s 239.65 Deg 0.1 µg/m3
2022-08-02 10:00 0.01 µg/m3 0.44 µg/m3 99.35 µg/m3 N/A N/A 26.79 °C 83.77 % 999.98 mbar 1.47 m/s 231.84 Deg 0.09 µg/m3
2022-08-02 09:00 0.01 µg/m3 0.37 µg/m3 101.05 µg/m3 N/A N/A 26.8 °C 82.65 % 999.87 mbar 1.18 m/s 254.59 Deg 0.1 µg/m3
2022-08-02 08:00 -0.07 µg/m3 0.41 µg/m3 100.12 µg/m3 N/A N/A 26.8 °C 82.92 % 999.84 mbar 0.94 m/s 191.1 Deg 0.1 µg/m3
2022-08-02 07:00 0.3 µg/m3 0.39 µg/m3 97.32 µg/m3 N/A N/A 26.88 °C 84.2 % 999.61 mbar 0.37 m/s 188.81 Deg 0.1 µg/m3
2022-08-02 06:00 1.28 µg/m3 0.36 µg/m3 94.39 µg/m3 N/A N/A 25.7 °C 88.99 % 999.32 mbar 0.55 m/s 148.48 Deg 0.09 µg/m3
2022-08-02 05:00 0.04 µg/m3 0.31 µg/m3 104.78 µg/m3 N/A N/A 25.6 °C 88.95 % 999.10 mbar 0.9 m/s 168.65 Deg 0.06 µg/m3
2022-08-02 04:00 0 µg/m3 0.36 µg/m3 98.78 µg/m3 N/A N/A 25.62 °C 87.29 % 998.97 mbar 1.29 m/s 194.38 Deg 0.06 µg/m3
2022-08-02 03:00 1.22 µg/m3 0.35 µg/m3 95.44 µg/m3 N/A N/A 25.65 °C 86.97 % 999.07 mbar 2.12 m/s 163.37 Deg 0.07 µg/m3
2022-08-02 02:00 0.08 µg/m3 0.32 µg/m3 92.75 µg/m3 N/A N/A 25.68 °C 87.22 % 999.21 mbar 2.57 m/s 183.5 Deg 0.07 µg/m3
2022-08-02 01:00 -0.15 µg/m3 0.26 µg/m3 96.55 µg/m3 N/A N/A 25.78 °C 87.19 % 999.52 mbar 2.11 m/s 187.49 Deg 0.08 µg/m3
2022-08-02 00:00 -0.23 µg/m3 0.23 µg/m3 101.87 µg/m3 N/A N/A 25.8 °C 88.13 % 999.85 mbar 1.21 m/s 223.39 Deg 0.07 µg/m3
2022-08-01 23:00 -0.21 µg/m3 0.24 µg/m3 103.39 µg/m3 N/A N/A 26.01 °C 87.2 % 1,000.14 mbar 1.45 m/s 263.45 Deg 0.07 µg/m3
2022-08-01 22:00 -0.27 µg/m3 0.24 µg/m3 103.4 µg/m3 N/A N/A 26.21 °C 85.67 % 1,000.17 mbar 1.54 m/s 303.11 Deg 0.07 µg/m3
2022-08-01 21:00 -0.29 µg/m3 0.22 µg/m3 100.9 µg/m3 N/A N/A 26.34 °C 86.02 % 999.66 mbar 2.14 m/s 302.23 Deg 0.06 µg/m3
2022-08-01 20:00 -0.06 µg/m3 0.22 µg/m3 107.78 µg/m3 N/A N/A 26.89 °C 82.43 % 999.22 mbar 2.2 m/s 299.23 Deg 0.07 µg/m3
2022-08-01 19:00 -0.06 µg/m3 0.17 µg/m3 113.74 µg/m3 N/A N/A 27.38 °C 78.97 % 998.99 mbar 3.24 m/s 252.69 Deg 0.07 µg/m3
2022-08-01 18:00 0.55 µg/m3 0.19 µg/m3 124.69 µg/m3 N/A N/A 28.06 °C 75.01 % 998.78 mbar 3.84 m/s 164.19 Deg 0.11 µg/m3
2022-08-01 17:00 0.14 µg/m3 0.22 µg/m3 122.08 µg/m3 N/A N/A 28.31 °C 75.31 % 998.87 mbar 3.82 m/s 209.94 Deg 0.1 µg/m3
2022-08-01 16:00 0.1 µg/m3 0.18 µg/m3 120.55 µg/m3 N/A N/A 28.35 °C 76.62 % 999.01 mbar 3.61 m/s 170.62 Deg 0.1 µg/m3
2022-08-01 15:00 0.24 µg/m3 0.16 µg/m3 124.37 µg/m3 N/A N/A 28.19 °C 76.17 % 999.13 mbar 3.58 m/s 199.28 Deg 0.12 µg/m3
2022-08-01 14:00 0.55 µg/m3 0.2 µg/m3 124.68 µg/m3 N/A N/A 28.65 °C 72.97 % 999.45 mbar 2.61 m/s 149 Deg 0.15 µg/m3
2022-08-01 13:00 0.86 µg/m3 0.18 µg/m3 124.07 µg/m3 N/A N/A 28.6 °C 73.29 % 999.71 mbar 3.97 m/s 262.39 Deg 0.18 µg/m3
2022-08-01 12:00 0.6 µg/m3 0.17 µg/m3 115.87 µg/m3 N/A N/A 27.76 °C 79.85 % 1,000.01 mbar 4.15 m/s 245.14 Deg 0.16 µg/m3
2022-08-01 11:00 2.21 µg/m3 0.17 µg/m3 119.34 µg/m3 N/A N/A 27.89 °C 79.3 % 999.91 mbar 4.92 m/s 155.8 Deg 0.37 µg/m3
2022-08-01 10:00 3.72 µg/m3 0.19 µg/m3 102.73 µg/m3 N/A N/A 27.82 °C 80.05 % 999.82 mbar 4.62 m/s 325.99 Deg 0.72 µg/m3
2022-08-01 09:00 1.68 µg/m3 0.24 µg/m3 98.38 µg/m3 N/A N/A 27.28 °C 82.95 % 999.68 mbar 3.8 m/s 178.57 Deg 0.35 µg/m3
2022-08-01 08:00 3.29 µg/m3 0.19 µg/m3 86.89 µg/m3 N/A N/A 26.72 °C 86.47 % 999.38 mbar 3.03 m/s 42.58 Deg 0.49 µg/m3
2022-08-01 07:00 2.83 µg/m3 0.16 µg/m3 80.84 µg/m3 N/A N/A 26.1 °C 90.68 % 999.24 mbar 1.88 m/s 57.44 Deg 0.27 µg/m3
2022-08-01 06:00 2.45 µg/m3 0.18 µg/m3 77.29 µg/m3 N/A N/A 25.42 °C 92.17 % 998.99 mbar 1.61 m/s 65.92 Deg 0.12 µg/m3
2022-08-01 05:00 3.39 µg/m3 0.19 µg/m3 72.78 µg/m3 N/A N/A 25.37 °C 92 % 998.75 mbar 1.9 m/s 143.88 Deg 0.08 µg/m3
2022-08-01 04:00 1.68 µg/m3 0.18 µg/m3 90.76 µg/m3 N/A N/A 25.32 °C 94.76 % 998.66 mbar 1.77 m/s 64.72 Deg 0.07 µg/m3
2022-08-01 03:00 2.9 µg/m3 0.19 µg/m3 84.37 µg/m3 N/A N/A 25.32 °C 94.95 % 998.67 mbar 1.77 m/s 115.07 Deg 0.07 µg/m3
2022-08-01 02:00 0.86 µg/m3 0.2 µg/m3 83.27 µg/m3 N/A N/A 25.15 °C 94.13 % 998.69 mbar 2.3 m/s 129.93 Deg 0.07 µg/m3
2022-08-01 01:00 0.13 µg/m3 0.24 µg/m3 89.29 µg/m3 N/A N/A 25.52 °C 92.27 % 998.87 mbar 2.2 m/s 186.58 Deg 0.06 µg/m3
2022-08-01 00:00 0.09 µg/m3 0.18 µg/m3 86.58 µg/m3 N/A N/A 25.58 °C 92.43 % 999.27 mbar 2.79 m/s 193.97 Deg 0.07 µg/m3
2022-07-31 23:00 0.58 µg/m3 0.18 µg/m3 86.74 µg/m3 N/A N/A 25.65 °C 91.27 % 999.48 mbar 1.68 m/s 191.81 Deg 0.07 µg/m3
2022-07-31 22:00 1.14 µg/m3 0.22 µg/m3 91.89 µg/m3 N/A N/A 25.86 °C 90.14 % 999.32 mbar 1.36 m/s 197.73 Deg 0.07 µg/m3
2022-07-31 21:00 0.41 µg/m3 0.22 µg/m3 96.6 µg/m3 N/A N/A 26.11 °C 88.82 % 999.26 mbar 0.91 m/s 312.96 Deg 0.07 µg/m3
2022-07-31 20:00 -0.07 µg/m3 0.18 µg/m3 103.62 µg/m3 N/A N/A 26.42 °C 89.45 % 998.94 mbar 1.98 m/s 324.25 Deg 0.07 µg/m3
2022-07-31 19:00 -0.34 µg/m3 0.19 µg/m3 112.34 µg/m3 N/A N/A 26.91 °C 89 % 998.84 mbar 2.71 m/s 318.18 Deg 0.08 µg/m3
2022-07-31 18:00 -0.23 µg/m3 0.17 µg/m3 115.54 µg/m3 N/A N/A 27.42 °C 87.31 % 998.84 mbar 2.74 m/s 259.23 Deg 0.09 µg/m3
2022-07-31 17:00 0.11 µg/m3 0.26 µg/m3 111.03 µg/m3 N/A N/A 27.59 °C 84.35 % 999.21 mbar 3.25 m/s 233.04 Deg 0.12 µg/m3
2022-07-31 16:00 1.17 µg/m3 0.24 µg/m3 96.65 µg/m3 N/A N/A 27.73 °C 84.57 % 999.39 mbar 3.28 m/s 252.49 Deg 0.35 µg/m3
2022-07-31 15:00 0.57 µg/m3 0.24 µg/m3 91.45 µg/m3 N/A N/A 27.54 °C 84.6 % 999.57 mbar 3.11 m/s 297.33 Deg 0.19 µg/m3
2022-07-31 14:00 0.71 µg/m3 0.24 µg/m3 89.46 µg/m3 N/A N/A 27.73 °C 80.81 % 999.98 mbar 3.05 m/s 303.11 Deg 0.52 µg/m3
2022-07-31 13:00 1.12 µg/m3 0.23 µg/m3 92.41 µg/m3 N/A N/A 27.41 °C 84.59 % 1,000.52 mbar 3.87 m/s 299.68 Deg 0.42 µg/m3
2022-07-31 12:00 0.32 µg/m3 0.22 µg/m3 93.95 µg/m3 N/A N/A 27.33 °C 85.66 % 1,000.87 mbar 4.6 m/s 314.04 Deg 0.15 µg/m3
2022-07-31 11:00 1.51 µg/m3 0.19 µg/m3 93.07 µg/m3 N/A N/A 27.67 °C 84.36 % 1,000.67 mbar 3.98 m/s 270.9 Deg 0.43 µg/m3
2022-07-31 10:00 2.23 µg/m3 0.15 µg/m3 94.42 µg/m3 N/A N/A 27.42 °C 83.07 % 1,000.45 mbar 4.33 m/s 293 Deg 0.49 µg/m3
2022-07-31 09:00 4.58 µg/m3 0.2 µg/m3 86.97 µg/m3 N/A N/A 27.06 °C 85.86 % 1,000.31 mbar 4.79 m/s 303.33 Deg 1.1 µg/m3
2022-07-31 08:00 2.58 µg/m3 0.22 µg/m3 81.24 µg/m3 N/A N/A 26.78 °C 86.7 % 1,000.07 mbar 4.42 m/s 300.49 Deg 0.47 µg/m3
2022-07-31 07:00 2.03 µg/m3 0.18 µg/m3 76.3 µg/m3 N/A N/A 26.5 °C 88.72 % 999.66 mbar 3.48 m/s 338.1 Deg 0.25 µg/m3
2022-07-31 06:00 7.45 µg/m3 0.2 µg/m3 69.2 µg/m3 N/A N/A 26.18 °C 88.83 % 999.47 mbar 3.38 m/s 317.88 Deg 0.17 µg/m3
2022-07-31 05:00 10.66 µg/m3 0.22 µg/m3 64.76 µg/m3 N/A N/A 26.2 °C 87.23 % 999.36 mbar 4.38 m/s 328.12 Deg 0.12 µg/m3
2022-07-31 04:00 7.38 µg/m3 0.2 µg/m3 74.55 µg/m3 N/A N/A 26.39 °C 84.99 % 999.53 mbar 3.67 m/s 319.36 Deg 0.1 µg/m3
2022-07-31 03:00 5.43 µg/m3 0.2 µg/m3 77.12 µg/m3 N/A N/A 26.5 °C 84.82 % 999.81 mbar 3.9 m/s 302.71 Deg 0.1 µg/m3
2022-07-31 02:00 6.34 µg/m3 0.21 µg/m3 79.76 µg/m3 N/A N/A 26.7 °C 84.24 % 1,000.09 mbar 2.91 m/s 285.55 Deg 0.1 µg/m3
2022-07-31 01:00 2.43 µg/m3 0.19 µg/m3 83.36 µg/m3 N/A N/A 26.78 °C 86.36 % 1,000.38 mbar 4.16 m/s 273.02 Deg 0.09 µg/m3
2022-07-31 00:00 1.67 µg/m3 0.2 µg/m3 81.48 µg/m3 N/A N/A 26.86 °C 87.16 % 1,000.71 mbar 5.15 m/s 259.52 Deg 0.09 µg/m3
2022-07-30 23:00 0.61 µg/m3 0.19 µg/m3 100.73 µg/m3 N/A N/A 26.88 °C 88.76 % 1,000.89 mbar 5.31 m/s 263.84 Deg 0.09 µg/m3
2022-07-30 22:00 -0.09 µg/m3 0.22 µg/m3 87.18 µg/m3 N/A N/A 26.78 °C 91.47 % 1,000.93 mbar 4.83 m/s 256.35 Deg 0.06 µg/m3
2022-07-30 21:00 1.66 µg/m3 0.19 µg/m3 78.28 µg/m3 N/A N/A 27.03 °C 89.8 % 1,000.76 mbar 4.63 m/s 270.4 Deg 0.09 µg/m3
2022-07-30 20:00 -0.28 µg/m3 0.18 µg/m3 75.64 µg/m3 N/A N/A 27.33 °C 88.27 % 1,000.60 mbar 4.16 m/s 281.15 Deg 0.07 µg/m3
2022-07-30 19:00 -0.29 µg/m3 0.18 µg/m3 75.2 µg/m3 N/A N/A 27.85 °C 85.85 % 1,000.32 mbar 4.75 m/s 258.84 Deg 0.09 µg/m3
2022-07-30 18:00 -0.37 µg/m3 0.21 µg/m3 73.16 µg/m3 N/A N/A 28.25 °C 83.45 % 1,000.00 mbar 6.14 m/s 242.47 Deg 0.09 µg/m3
2022-07-30 17:00 -0.34 µg/m3 0.18 µg/m3 72.83 µg/m3 N/A N/A 28.58 °C 82.33 % 999.99 mbar 6.67 m/s 237.19 Deg 0.07 µg/m3
2022-07-30 16:00 -0.3 µg/m3 0.18 µg/m3 78.16 µg/m3 N/A N/A 28.73 °C 81.36 % 1,000.41 mbar 6.58 m/s 162.9 Deg 0.08 µg/m3
2022-07-30 15:00 -0.2 µg/m3 0.18 µg/m3 81.88 µg/m3 N/A N/A 29.11 °C 77.91 % 1,000.74 mbar 6.36 m/s 153.09 Deg 0.1 µg/m3
2022-07-30 14:00 -0.13 µg/m3 0.24 µg/m3 86.21 µg/m3 N/A N/A 29.05 °C 76.95 % 1,000.98 mbar 5.65 m/s 178.71 Deg 0.1 µg/m3
2022-07-30 13:00 0.47 µg/m3 0.18 µg/m3 104.01 µg/m3 N/A N/A 28.37 °C 78.76 % 1,001.14 mbar 5.2 m/s 170.01 Deg 0.18 µg/m3
2022-07-30 12:00 -0.19 µg/m3 0.16 µg/m3 86.37 µg/m3 N/A N/A 28.08 °C 82.32 % 1,001.31 mbar 4.56 m/s 225.26 Deg 0.1 µg/m3
2022-07-30 11:00 0.12 µg/m3 0.21 µg/m3 85.43 µg/m3 N/A N/A 27.88 °C 86.16 % 1,001.49 mbar 4.26 m/s 214.17 Deg 0.15 µg/m3
2022-07-30 10:00 0.17 µg/m3 0.2 µg/m3 95.58 µg/m3 N/A N/A 27.52 °C 89.85 % 1,001.37 mbar 4.11 m/s 242 Deg 0.15 µg/m3
2022-07-30 09:00 0.31 µg/m3 0.16 µg/m3 89.36 µg/m3 N/A N/A 27.2 °C 91.04 % 1,001.14 mbar 4.1 m/s 275.09 Deg 0.17 µg/m3
2022-07-30 08:00 0.84 µg/m3 0.15 µg/m3 87.11 µg/m3 N/A N/A 26.99 °C 88.59 % 1,000.93 mbar 3.78 m/s 261.81 Deg 0.24 µg/m3
2022-07-30 07:00 0.75 µg/m3 0.14 µg/m3 85.15 µg/m3 N/A N/A 26.63 °C 88.48 % 1,000.83 mbar 3.37 m/s 279.64 Deg 0.16 µg/m3
2022-07-30 06:00 0.53 µg/m3 0.16 µg/m3 83.99 µg/m3 N/A N/A 25.97 °C 94.08 % 1,000.37 mbar 3.1 m/s 273.22 Deg 0.1 µg/m3
2022-07-30 05:00 0.19 µg/m3 0.15 µg/m3 87.07 µg/m3 N/A N/A 26 °C 95.84 % 1,000.09 mbar 3.25 m/s 266.16 Deg 0.07 µg/m3
2022-07-30 04:00 -0 µg/m3 0.2 µg/m3 77.95 µg/m3 N/A N/A 26.07 °C 95.31 % 1,000.24 mbar 3.23 m/s 267.78 Deg 0.08 µg/m3
2022-07-30 03:00 0.4 µg/m3 0.19 µg/m3 75.22 µg/m3 N/A N/A 26.08 °C 95.23 % 1,000.40 mbar 2.67 m/s 261.17 Deg 0.07 µg/m3
2022-07-30 02:00 -0.37 µg/m3 0.19 µg/m3 77.74 µg/m3 N/A N/A 26.24 °C 94.34 % 1,000.77 mbar 2.33 m/s 258.44 Deg 0.07 µg/m3
2022-07-30 01:00 -0.15 µg/m3 0.13 µg/m3 77.7 µg/m3 N/A N/A 26.46 °C 92.45 % 1,001.24 mbar 2.02 m/s 259.38 Deg 0.07 µg/m3
2022-07-30 00:00 -0.3 µg/m3 0.21 µg/m3 78.14 µg/m3 N/A N/A 26.64 °C 91.82 % 1,001.59 mbar 2.42 m/s 253.85 Deg 0.06 µg/m3
2022-07-29 23:00 -0.21 µg/m3 0.18 µg/m3 84.73 µg/m3 N/A N/A 26.97 °C 90.7 % 1,001.67 mbar 2.45 m/s 243.51 Deg 0.05 µg/m3
2022-07-29 22:00 -0.22 µg/m3 0.2 µg/m3 85.88 µg/m3 N/A N/A 27.13 °C 88.08 % 1,001.67 mbar 2.51 m/s 237.38 Deg 0.08 µg/m3
2022-07-29 21:00 -0.4 µg/m3 0.15 µg/m3 88.1 µg/m3 N/A N/A 27.41 °C 85.26 % 1,001.47 mbar 2.94 m/s 220.98 Deg 0.06 µg/m3
2022-07-29 20:00 1.51 µg/m3 0.19 µg/m3 89.99 µg/m3 N/A N/A 27.69 °C 81.63 % 1,001.01 mbar 2.8 m/s 215.8 Deg 0.06 µg/m3
2022-07-29 19:00 -0.35 µg/m3 0.16 µg/m3 94.09 µg/m3 N/A N/A 28.21 °C 80.87 % 1,000.93 mbar 2.85 m/s 177.88 Deg 0.06 µg/m3
2022-07-29 18:00 -0.28 µg/m3 0.18 µg/m3 98.64 µg/m3 N/A N/A 28.52 °C 80.2 % 1,000.61 mbar 3.59 m/s 155.09 Deg 0.07 µg/m3
2022-07-29 17:00 -0.23 µg/m3 0.18 µg/m3 97.47 µg/m3 N/A N/A 28.58 °C 82.28 % 1,000.78 mbar 3.71 m/s 126.32 Deg 0.08 µg/m3
2022-07-29 16:00 -0.17 µg/m3 0.17 µg/m3 97.1 µg/m3 N/A N/A 28.67 °C 81.97 % 1,001.17 mbar 3.41 m/s 192.16 Deg 0.09 µg/m3
2022-07-29 15:00 -0.18 µg/m3 0.18 µg/m3 92.71 µg/m3 N/A N/A 28.66 °C 81.68 % 1,001.44 mbar 3.39 m/s 165.19 Deg 0.1 µg/m3
2022-07-29 14:00 0.05 µg/m3 0.18 µg/m3 103.87 µg/m3 N/A N/A 28.59 °C 81.32 % 1,001.65 mbar 3.21 m/s 223.09 Deg 0.1 µg/m3
2022-07-29 13:00 0.32 µg/m3 0.15 µg/m3 109.06 µg/m3 N/A N/A 28.55 °C 81.74 % 1,001.80 mbar 2.95 m/s 279.85 Deg 0.12 µg/m3
2022-07-29 12:00 0.44 µg/m3 0.18 µg/m3 103.59 µg/m3 N/A N/A 28.49 °C 81.73 % 1,001.78 mbar 2.71 m/s 127.32 Deg 0.13 µg/m3
2022-07-29 11:00 0.82 µg/m3 0.18 µg/m3 100.65 µg/m3 N/A N/A 27.92 °C 85.89 % 1,001.83 mbar 2.87 m/s 184.86 Deg 0.19 µg/m3
2022-07-29 10:00 2.45 µg/m3 0.19 µg/m3 97.4 µg/m3 N/A N/A 27.97 °C 84.62 % 1,001.75 mbar 1.97 m/s 201.91 Deg 0.4 µg/m3
2022-07-29 09:00 3.37 µg/m3 0.16 µg/m3 87.65 µg/m3 N/A N/A 27.98 °C 84.82 % 1,001.40 mbar 1.89 m/s 263.14 Deg 0.61 µg/m3
2022-07-29 08:00 8.11 µg/m3 0.22 µg/m3 78.84 µg/m3 N/A N/A 27.84 °C 82.67 % 1,001.09 mbar 1.66 m/s 162.38 Deg 1.26 µg/m3
2022-07-29 07:00 2.87 µg/m3 0.19 µg/m3 73.47 µg/m3 N/A N/A 26.32 °C 91.65 % 1,000.41 mbar 1.52 m/s 171.58 Deg 0.33 µg/m3
2022-07-29 06:00 2.31 µg/m3 0.19 µg/m3 72.9 µg/m3 N/A N/A 25.36 °C 97.72 % 999.91 mbar 1.72 m/s 243.4 Deg 0.11 µg/m3
2022-07-29 05:00 7.24 µg/m3 0.18 µg/m3 68.9 µg/m3 N/A N/A 25.53 °C 98.4 % 999.09 mbar 4.11 m/s 74.85 Deg 0.08 µg/m3
2022-07-29 04:00 2.41 µg/m3 0.19 µg/m3 75.64 µg/m3 N/A N/A 25.56 °C 98.32 % 999.20 mbar 3.81 m/s 65.08 Deg 0.09 µg/m3
2022-07-29 03:00 4.03 µg/m3 0.18 µg/m3 67.13 µg/m3 N/A N/A 25.66 °C 98.51 % 999.34 mbar 3.83 m/s 48.43 Deg 0.1 µg/m3
2022-07-29 02:00 31.79 µg/m3 0.24 µg/m3 48.97 µg/m3 N/A N/A 25.87 °C 98.48 % 999.38 mbar 4.02 m/s 61.02 Deg 0.09 µg/m3
2022-07-29 01:00 3.87 µg/m3 0.17 µg/m3 70.42 µg/m3 N/A N/A 25.96 °C 98.33 % 999.81 mbar 3.59 m/s 51.7 Deg 0.09 µg/m3
2022-07-29 00:00 4 µg/m3 0.2 µg/m3 74.46 µg/m3 N/A N/A 26.17 °C 98.57 % 1,000.16 mbar 2.9 m/s 52.35 Deg 0.08 µg/m3
2022-07-28 23:00 1.93 µg/m3 0.22 µg/m3 75.9 µg/m3 N/A N/A 26.33 °C 97.67 % 1,000.32 mbar 2.16 m/s 52.05 Deg 0.07 µg/m3
2022-07-28 22:00 3.32 µg/m3 0.2 µg/m3 69.3 µg/m3 N/A N/A 26.44 °C 96 % 1,000.16 mbar 2.78 m/s 55.43 Deg 0.07 µg/m3
2022-07-28 21:00 0.47 µg/m3 0.23 µg/m3 80.67 µg/m3 N/A N/A 26.68 °C 94.82 % 999.73 mbar 3.19 m/s 41.88 Deg 0.07 µg/m3
2022-07-28 20:00 -0.13 µg/m3 0.2 µg/m3 84.31 µg/m3 N/A N/A 26.93 °C 92.92 % 998.98 mbar 2.64 m/s 34.32 Deg 0.08 µg/m3
2022-07-28 19:00 0.1 µg/m3 0.29 µg/m3 87.82 µg/m3 N/A N/A 27.88 °C 86.31 % 998.48 mbar 3.42 m/s 111.56 Deg 0.15 µg/m3
2022-07-28 18:00 0.54 µg/m3 0.56 µg/m3 97.72 µg/m3 N/A N/A 30.46 °C 64.4 % 998.06 mbar 1.92 m/s 259.84 Deg 0.12 µg/m3
2022-07-28 17:00 0.3 µg/m3 0.31 µg/m3 99.49 µg/m3 N/A N/A 30.9 °C 56.41 % 997.87 mbar 3.1 m/s 185.2 Deg 0.12 µg/m3
2022-07-28 16:00 0.23 µg/m3 0.2 µg/m3 96.98 µg/m3 N/A N/A 30.29 °C 64.76 % 997.93 mbar 4.16 m/s 166.24 Deg 0.15 µg/m3
2022-07-28 15:00 0.24 µg/m3 0.17 µg/m3 96.99 µg/m3 N/A N/A 30 °C 71.57 % 998.00 mbar 4.26 m/s 249 Deg 0.12 µg/m3
2022-07-28 14:00 0.91 µg/m3 0.17 µg/m3 112.64 µg/m3 N/A N/A 29.76 °C 72.11 % 998.22 mbar 4.87 m/s 144.39 Deg 0.15 µg/m3
2022-07-28 13:00 1.19 µg/m3 0.14 µg/m3 111.99 µg/m3 N/A N/A 29.21 °C 72.4 % 998.26 mbar 6.25 m/s 166.24 Deg 0.19 µg/m3
2022-07-28 12:00 0.8 µg/m3 0.18 µg/m3 106.76 µg/m3 N/A N/A 28.62 °C 76.41 % 998.33 mbar 6.6 m/s 141.01 Deg 0.16 µg/m3
2022-07-28 11:00 0.9 µg/m3 0.18 µg/m3 98.9 µg/m3 N/A N/A 28.47 °C 77.56 % 998.15 mbar 5.06 m/s 124.66 Deg 0.19 µg/m3
2022-07-28 10:00 0.69 µg/m3 0.16 µg/m3 94.67 µg/m3 N/A N/A 27.82 °C 80.42 % 997.68 mbar 3.58 m/s 164.64 Deg 0.17 µg/m3
2022-07-28 09:00 0.97 µg/m3 0.16 µg/m3 94.57 µg/m3 N/A N/A 26.27 °C 88.99 % 997.25 mbar 3.92 m/s 16.07 Deg 0.19 µg/m3
2022-07-28 08:00 0.82 µg/m3 0.14 µg/m3 90.95 µg/m3 N/A N/A 25.89 °C 92.55 % 997.04 mbar 2.76 m/s 313.42 Deg 0.12 µg/m3
2022-07-28 07:00 1.29 µg/m3 0.16 µg/m3 86.11 µg/m3 N/A N/A 25.68 °C 94.34 % 996.35 mbar 3.74 m/s 268.28 Deg 0.14 µg/m3
2022-07-28 06:00 0.61 µg/m3 0.14 µg/m3 91.58 µg/m3 N/A N/A 25.53 °C 95.72 % 995.87 mbar 4.6 m/s 252.9 Deg 0.07 µg/m3
2022-07-28 05:00 1.61 µg/m3 0.16 µg/m3 92.3 µg/m3 N/A N/A 25.49 °C 95.94 % 995.49 mbar 2.92 m/s 270.04 Deg 0.08 µg/m3
2022-07-28 04:00 2.34 µg/m3 0.2 µg/m3 90.35 µg/m3 N/A N/A 25.75 °C 94.49 % 995.69 mbar 3.93 m/s 330.36 Deg 0.08 µg/m3
2022-07-28 03:00 2 µg/m3 0.21 µg/m3 96.36 µg/m3 N/A N/A 25.89 °C 95.5 % 996.26 mbar 4.4 m/s 324.18 Deg 0.07 µg/m3
2022-07-28 02:00 0.12 µg/m3 0.19 µg/m3 100.3 µg/m3 N/A N/A 25.88 °C 95.34 % 996.67 mbar 4.69 m/s 290.98 Deg 0.07 µg/m3
2022-07-28 01:00 0.9 µg/m3 0.16 µg/m3 95.16 µg/m3 N/A N/A 25.87 °C 94.28 % 996.81 mbar 4.08 m/s 272.33 Deg 0.09 µg/m3
2022-07-28 00:00 0.61 µg/m3 0.15 µg/m3 88.36 µg/m3 N/A N/A 26.01 °C 93.54 % 997.12 mbar 3.87 m/s 271.52 Deg 0.1 µg/m3
2022-07-27 23:00 1.08 µg/m3 0.18 µg/m3 96.01 µg/m3 N/A N/A 26.03 °C 92.93 % 997.04 mbar 2.97 m/s 273.79 Deg 0.09 µg/m3
2022-07-27 22:00 2.93 µg/m3 0.17 µg/m3 98.5 µg/m3 N/A N/A 26.21 °C 94.98 % 996.81 mbar 2.77 m/s 270.33 Deg 0.08 µg/m3
2022-07-27 21:00 0.49 µg/m3 0.14 µg/m3 115.04 µg/m3 N/A N/A 26.47 °C 94.96 % 996.27 mbar 3.23 m/s 274.58 Deg 0.08 µg/m3
2022-07-27 20:00 0.3 µg/m3 0.2 µg/m3 117.41 µg/m3 N/A N/A 26.62 °C 94.74 % 995.74 mbar 3.92 m/s 266.95 Deg 0.08 µg/m3
2022-07-27 19:00 0 µg/m3 0.15 µg/m3 117.2 µg/m3 N/A N/A 26.89 °C 93.67 % 995.47 mbar 4.82 m/s 258.18 Deg 0.09 µg/m3
2022-07-27 18:00 -0.11 µg/m3 0.19 µg/m3 112.87 µg/m3 N/A N/A 27.34 °C 92.49 % 995.27 mbar 5.07 m/s 240.52 Deg 0.08 µg/m3
2022-07-27 17:00 -0.08 µg/m3 0.21 µg/m3 106.3 µg/m3 N/A N/A 28.14 °C 83.37 % 995.29 mbar 4.22 m/s 175.04 Deg 0.1 µg/m3
2022-07-27 16:00 0.16 µg/m3 0.2 µg/m3 109.48 µg/m3 N/A N/A 28.99 °C 70.86 % 995.63 mbar 3.5 m/s 170.6 Deg 0.13 µg/m3
2022-07-27 15:00 0.53 µg/m3 0.18 µg/m3 -306.98 µg/m3 N/A N/A 28.72 °C 70.06 % 996.31 mbar 3.13 m/s 245.83 Deg 0.17 µg/m3
2022-07-27 14:00 0.52 µg/m3 0.16 µg/m3 107.63 µg/m3 N/A N/A 27.67 °C 83.66 % 996.73 mbar 4.29 m/s 253.99 Deg 0.16 µg/m3
2022-07-27 13:00 1.23 µg/m3 0.17 µg/m3 112.19 µg/m3 N/A N/A 27.87 °C 79.96 % 997.02 mbar 4.03 m/s 266.11 Deg 0.22 µg/m3
2022-07-27 12:00 3.59 µg/m3 0.22 µg/m3 112.74 µg/m3 N/A N/A 27.73 °C 83.03 % 997.31 mbar 3.11 m/s 333.84 Deg 0.55 µg/m3
2022-07-27 11:00 5.71 µg/m3 0.19 µg/m3 95.23 µg/m3 N/A N/A 27.35 °C 86.93 % 997.27 mbar 3.58 m/s 336.41 Deg 1.09 µg/m3
2022-07-27 10:00 7.47 µg/m3 0.16 µg/m3 84.36 µg/m3 N/A N/A 27.01 °C 89.12 % 997.03 mbar 3.89 m/s 337.83 Deg 1.58 µg/m3
2022-07-27 09:00 5.11 µg/m3 0.15 µg/m3 84.44 µg/m3 N/A N/A 27.36 °C 86.75 % 996.84 mbar 4.02 m/s 250.7 Deg 0.92 µg/m3
2022-07-27 08:00 8.39 µg/m3 0.13 µg/m3 79.45 µg/m3 N/A N/A 27.31 °C 84.05 % 996.39 mbar 3.63 m/s 176.5 Deg 1.23 µg/m3
2022-07-27 07:00 8.04 µg/m3 0.15 µg/m3 75.29 µg/m3 N/A N/A 26.69 °C 87.05 % 995.77 mbar 4.21 m/s 53.77 Deg 0.85 µg/m3
2022-07-27 06:00 5.12 µg/m3 0.16 µg/m3 71.34 µg/m3 N/A N/A 25.74 °C 92.57 % 995.19 mbar 4.72 m/s 52.24 Deg 0.21 µg/m3
2022-07-27 05:00 9.79 µg/m3 0.16 µg/m3 61.36 µg/m3 N/A N/A 25.77 °C 97.29 % 994.94 mbar 5.34 m/s 21.24 Deg 0.16 µg/m3
2022-07-27 04:00 12.54 µg/m3 0.16 µg/m3 62.66 µg/m3 N/A N/A 25.98 °C 96.57 % 995.23 mbar 4.94 m/s 343.35 Deg 0.13 µg/m3
2022-07-27 03:00 17.38 µg/m3 0.16 µg/m3 62.28 µg/m3 N/A N/A 25.96 °C 93.67 % 995.61 mbar 4.5 m/s 309.53 Deg 0.12 µg/m3
2022-07-27 02:00 5.2 µg/m3 0.14 µg/m3 75.78 µg/m3 N/A N/A 26.23 °C 91.49 % 996.10 mbar 5.23 m/s 279.05 Deg 0.1 µg/m3
2022-07-27 01:00 1.18 µg/m3 0.18 µg/m3 91.23 µg/m3 N/A N/A 26.62 °C 87.87 % 996.56 mbar 5.52 m/s 269.03 Deg 0.1 µg/m3
2022-07-27 00:00 3.5 µg/m3 0.19 µg/m3 89.06 µg/m3 N/A N/A 26.84 °C 85.11 % 996.86 mbar 5.8 m/s 245.75 Deg 0.09 µg/m3
2022-07-26 23:00 2.86 µg/m3 0.18 µg/m3 94.67 µg/m3 N/A N/A 26.9 °C 83.68 % 996.97 mbar 5.19 m/s 253.7 Deg 0.08 µg/m3
2022-07-26 22:00 1.01 µg/m3 0.17 µg/m3 101.92 µg/m3 N/A N/A 26.93 °C 84.1 % 997.13 mbar 4.97 m/s 250.33 Deg 0.07 µg/m3
2022-07-26 21:00 3.55 µg/m3 0.16 µg/m3 94.21 µg/m3 N/A N/A 26.93 °C 85.55 % 997.11 mbar 4.98 m/s 247.21 Deg 0.06 µg/m3
2022-07-26 20:00 0.91 µg/m3 0.16 µg/m3 98.58 µg/m3 N/A N/A 26.84 °C 87.19 % 996.85 mbar 4.52 m/s 251.58 Deg 0.06 µg/m3
2022-07-26 19:00 0.18 µg/m3 0.17 µg/m3 99.41 µg/m3 N/A N/A 27 °C 89.6 % 996.78 mbar 4.74 m/s 258.84 Deg 0.09 µg/m3
2022-07-26 18:00 0.28 µg/m3 0.17 µg/m3 104.35 µg/m3 N/A N/A 27.34 °C 90.43 % 996.80 mbar 5.03 m/s 278.32 Deg 0.12 µg/m3
2022-07-26 17:00 0.73 µg/m3 0.18 µg/m3 109.79 µg/m3 N/A N/A 27.87 °C 86.96 % 997.01 mbar 4.96 m/s 265.48 Deg 0.19 µg/m3
2022-07-26 16:00 3.79 µg/m3 0.19 µg/m3 109.12 µg/m3 N/A N/A 28.09 °C 84.47 % 997.51 mbar 5.13 m/s 270.87 Deg 0.75 µg/m3
2022-07-26 15:00 0.35 µg/m3 0.19 µg/m3 110.32 µg/m3 N/A N/A 28 °C 81.89 % 997.94 mbar 5.29 m/s 209.54 Deg 0.16 µg/m3
2022-07-26 14:00 0.1 µg/m3 0.16 µg/m3 116.28 µg/m3 N/A N/A 28.11 °C 79.57 % 998.17 mbar 5.74 m/s 216.61 Deg 0.43 µg/m3
2022-07-26 13:00 0.48 µg/m3 0.22 µg/m3 110.78 µg/m3 N/A N/A 27.85 °C 82.23 % 998.44 mbar 5.65 m/s 157.28 Deg 0.21 µg/m3
2022-07-26 12:00 1.26 µg/m3 0.17 µg/m3 111.68 µg/m3 N/A N/A 27.77 °C 84.01 % 998.69 mbar 5.79 m/s 228.36 Deg 0.19 µg/m3
2022-07-26 11:00 1.22 µg/m3 0.17 µg/m3 107.28 µg/m3 N/A N/A 27.69 °C 81.76 % 998.65 mbar 4.69 m/s 209.16 Deg 0.23 µg/m3
2022-07-26 10:00 2.81 µg/m3 0.13 µg/m3 97.85 µg/m3 N/A N/A 27.68 °C 80.6 % 998.48 mbar 3.56 m/s 225.61 Deg 0.48 µg/m3
2022-07-26 09:00 7.03 µg/m3 0.16 µg/m3 77.87 µg/m3 N/A N/A 27.43 °C 84.83 % 998.40 mbar 3.16 m/s 232.31 Deg 1.51 µg/m3
2022-07-26 08:00 5.39 µg/m3 0.18 µg/m3 74.81 µg/m3 N/A N/A 27.12 °C 86.04 % 998.34 mbar 3.06 m/s 294.13 Deg 0.95 µg/m3
2022-07-26 07:00 6.32 µg/m3 0.15 µg/m3 62.61 µg/m3 N/A N/A 26.11 °C 94.53 % 998.13 mbar 3.96 m/s 292.04 Deg 1.02 µg/m3
2022-07-26 06:00 3.77 µg/m3 0.1 µg/m3 63.74 µg/m3 N/A N/A 25.96 °C 97.36 % 997.93 mbar 5.2 m/s 280.42 Deg 0.17 µg/m3
2022-07-26 05:00 3.13 µg/m3 0.19 µg/m3 68.6 µg/m3 N/A N/A 26.18 °C 96.44 % 997.73 mbar 5.47 m/s 276.44 Deg 0.1 µg/m3
2022-07-26 04:00 2.86 µg/m3 0.15 µg/m3 70.2 µg/m3 N/A N/A 26.35 °C 94.91 % 997.90 mbar 5.25 m/s 267.03 Deg 0.1 µg/m3
2022-07-26 03:00 3.23 µg/m3 0.2 µg/m3 78.23 µg/m3 N/A N/A 26.5 °C 91.76 % 998.33 mbar 5.6 m/s 255.35 Deg 0.09 µg/m3
2022-07-26 02:00 1.4 µg/m3 0.2 µg/m3 96.48 µg/m3 N/A N/A 26.59 °C 88.95 % 998.71 mbar 4.93 m/s 250.48 Deg 0.08 µg/m3
2022-07-26 01:00 1.92 µg/m3 0.23 µg/m3 105.65 µg/m3 N/A N/A 26.8 °C 85.9 % 999.04 mbar 5.19 m/s 245.81 Deg 0.08 µg/m3
2022-07-26 00:00 4.31 µg/m3 0.22 µg/m3 104.69 µg/m3 N/A N/A 26.81 °C 85.41 % 999.26 mbar 4.76 m/s 243.22 Deg 0.08 µg/m3
2022-07-25 23:00 1.78 µg/m3 0.21 µg/m3 117.06 µg/m3 N/A N/A 26.85 °C 84.37 % 999.37 mbar 4.37 m/s 238.33 Deg 0.08 µg/m3
2022-07-25 22:00 3.11 µg/m3 0.2 µg/m3 109.69 µg/m3 N/A N/A 26.86 °C 83.06 % 999.50 mbar 3.33 m/s 229.83 Deg 0.09 µg/m3
2022-07-25 21:00 4.36 µg/m3 0.19 µg/m3 104.24 µg/m3 N/A N/A 26.94 °C 80.72 % 999.47 mbar 2.15 m/s 226.64 Deg 0.09 µg/m3
2022-07-25 20:00 7.9 µg/m3 0.18 µg/m3 98.45 µg/m3 N/A N/A 27.43 °C 74.5 % 999.27 mbar 2.18 m/s 235.39 Deg 0.09 µg/m3
2022-07-25 19:00 8.08 µg/m3 0.19 µg/m3 100.07 µg/m3 N/A N/A 27.99 °C 75.28 % 999.32 mbar 2.44 m/s 268.92 Deg 0.24 µg/m3
2022-07-25 18:00 0.57 µg/m3 0.14 µg/m3 108.07 µg/m3 N/A N/A 28.54 °C 76 % 999.38 mbar 3.17 m/s 241.21 Deg 0.15 µg/m3
2022-07-25 17:00 0.87 µg/m3 0.13 µg/m3 115.32 µg/m3 N/A N/A 28.85 °C 75.2 % 999.49 mbar 4.27 m/s 218.12 Deg 0.21 µg/m3
2022-07-25 16:00 0.6 µg/m3 0.11 µg/m3 128.18 µg/m3 N/A N/A 29.13 °C 69.75 % 999.76 mbar 4.57 m/s 208.34 Deg 0.16 µg/m3
2022-07-25 15:00 4.12 µg/m3 0.19 µg/m3 124.81 µg/m3 N/A N/A 29.13 °C 71.57 % 1,000.16 mbar 4.36 m/s 207.04 Deg 0.78 µg/m3
2022-07-25 14:00 3.79 µg/m3 0.18 µg/m3 117.56 µg/m3 N/A N/A 29.1 °C 72.89 % 1,000.61 mbar 3.91 m/s 275.24 Deg 0.82 µg/m3
2022-07-25 13:00 6.6 µg/m3 0.17 µg/m3 90.78 µg/m3 N/A N/A 27.64 °C 89.65 % 1,000.89 mbar 4.2 m/s 314.99 Deg 1.83 µg/m3
2022-07-25 12:00 1.78 µg/m3 0.16 µg/m3 98.62 µg/m3 N/A N/A 27.64 °C 90.24 % 1,001.08 mbar 3.97 m/s 299.25 Deg 0.41 µg/m3
2022-07-25 11:00 2.31 µg/m3 0.14 µg/m3 92.03 µg/m3 N/A N/A 27.66 °C 88.78 % 1,001.20 mbar 3.51 m/s 260.95 Deg 0.6 µg/m3
2022-07-25 10:00 1.82 µg/m3 0.15 µg/m3 90.81 µg/m3 N/A N/A 27.43 °C 92.68 % 1,001.01 mbar 4.42 m/s 211.17 Deg 0.36 µg/m3
2022-07-25 09:00 0 µg/m3 0 µg/m3 0 µg/m3 N/A N/A 27.13 °C 91.62 % 1,000.73 mbar 4.76 m/s 191.55 Deg 0 µg/m3
2022-07-25 08:00 1.58 µg/m3 0.16 µg/m3 77.5 µg/m3 N/A N/A 26.81 °C 92.82 % 1,000.79 mbar 4.28 m/s 195.11 Deg 0.28 µg/m3
2022-07-25 07:00 0.79 µg/m3 0.17 µg/m3 78.83 µg/m3 N/A N/A 26.32 °C 95.41 % 1,000.66 mbar 4.07 m/s 209.82 Deg 0.17 µg/m3
2022-07-25 06:00 0.56 µg/m3 0.17 µg/m3 81.44 µg/m3 N/A N/A 26 °C 95.55 % 1,000.63 mbar 4.27 m/s 209.28 Deg 0.1 µg/m3
2022-07-25 05:00 0.56 µg/m3 0.18 µg/m3 92.53 µg/m3 N/A N/A 25.92 °C 95.64 % 1,000.46 mbar 3.98 m/s 215.89 Deg 0.08 µg/m3
2022-07-25 04:00 0.96 µg/m3 0.18 µg/m3 99.82 µg/m3 N/A N/A 25.91 °C 94.72 % 1,000.52 mbar 3.6 m/s 228.81 Deg 0.07 µg/m3
2022-07-25 03:00 1.44 µg/m3 0.19 µg/m3 104.08 µg/m3 N/A N/A 25.93 °C 92.89 % 1,000.86 mbar 3.3 m/s 230.15 Deg 0.07 µg/m3
2022-07-25 02:00 0.37 µg/m3 0.2 µg/m3 108.26 µg/m3 N/A N/A 26.09 °C 91.54 % 1,001.39 mbar 3.41 m/s 239.05 Deg 0.08 µg/m3
2022-07-25 01:00 0 µg/m3 0.17 µg/m3 108.29 µg/m3 N/A N/A 26.11 °C 90.53 % 1,001.89 mbar 3.2 m/s 248.11 Deg 0.07 µg/m3
2022-07-25 00:00 -0.18 µg/m3 0.2 µg/m3 106.54 µg/m3 N/A N/A 26.2 °C 89.32 % 1,002.33 mbar 3.28 m/s 253.15 Deg 0.07 µg/m3
2022-07-24 23:00 -0.14 µg/m3 0.29 µg/m3 106.83 µg/m3 N/A N/A 26.3 °C 87.47 % 1,002.40 mbar 4.13 m/s 250.35 Deg 0.06 µg/m3
2022-07-24 22:00 -0.1 µg/m3 0.67 µg/m3 105.34 µg/m3 N/A N/A 26.42 °C 85.66 % 1,002.26 mbar 4.42 m/s 254.33 Deg 0.07 µg/m3
2022-07-24 21:00 5.71 µg/m3 0.96 µg/m3 101.4 µg/m3 N/A N/A 26.59 °C 83.45 % 1,002.07 mbar 4.5 m/s 246.96 Deg 0.09 µg/m3
2022-07-24 20:00 -0.11 µg/m3 0.8 µg/m3 108.88 µg/m3 N/A N/A 26.81 °C 82.23 % 1,001.93 mbar 4.85 m/s 273.55 Deg 0.08 µg/m3
2022-07-24 19:00 -0.04 µg/m3 0.54 µg/m3 108.32 µg/m3 N/A N/A 27.4 °C 78.83 % 1,001.81 mbar 5.43 m/s 179.21 Deg 0.08 µg/m3
2022-07-24 18:00 -0.11 µg/m3 0.35 µg/m3 101.11 µg/m3 N/A N/A 27.85 °C 76.22 % 1,001.85 mbar 5.82 m/s 170.55 Deg 0.09 µg/m3
2022-07-24 17:00 -0.09 µg/m3 0.29 µg/m3 94.38 µg/m3 N/A N/A 28.01 °C 77.51 % 1,002.11 mbar 6.44 m/s 191.63 Deg 0.11 µg/m3
2022-07-24 16:00 -0.02 µg/m3 0.2 µg/m3 89.55 µg/m3 N/A N/A 27.93 °C 78.29 % 1,002.61 mbar 7.19 m/s 214.07 Deg 0.11 µg/m3
2022-07-24 15:00 -0.05 µg/m3 0.21 µg/m3 80.56 µg/m3 N/A N/A 27.81 °C 80.86 % 1,003.01 mbar 7.16 m/s 183.22 Deg 0.11 µg/m3
2022-07-24 14:00 0.02 µg/m3 0.18 µg/m3 83.03 µg/m3 N/A N/A 28.1 °C 77.29 % 1,003.45 mbar 6.77 m/s 243.45 Deg 0.11 µg/m3
2022-07-24 13:00 0.06 µg/m3 0.17 µg/m3 85.18 µg/m3 N/A N/A 27.97 °C 75.87 % 1,003.87 mbar 6.49 m/s 214.05 Deg 0.11 µg/m3
2022-07-24 12:00 0.02 µg/m3 0.18 µg/m3 83.98 µg/m3 N/A N/A 27.78 °C 78.09 % 1,004.10 mbar 6.26 m/s 249.66 Deg 0.1 µg/m3
2022-07-24 11:00 0.25 µg/m3 0.2 µg/m3 88.75 µg/m3 N/A N/A 27.61 °C 79.16 % 1,004.27 mbar 5.92 m/s 212.4 Deg 0.14 µg/m3
2022-07-24 10:00 0.23 µg/m3 0.21 µg/m3 90.06 µg/m3 N/A N/A 27.22 °C 83.17 % 1,004.10 mbar 5.36 m/s 202.47 Deg 0.14 µg/m3
2022-07-24 09:00 0.31 µg/m3 0.16 µg/m3 89.97 µg/m3 N/A N/A 26.9 °C 86 % 1,003.86 mbar 4.91 m/s 238.36 Deg 0.16 µg/m3
2022-07-24 08:00 0.23 µg/m3 0.16 µg/m3 94.95 µg/m3 N/A N/A 26.53 °C 89.11 % 1,003.78 mbar 3.71 m/s 294.27 Deg 0.13 µg/m3
2022-07-24 07:00 0.16 µg/m3 0.16 µg/m3 99.53 µg/m3 N/A N/A 26.06 °C 90.22 % 1,003.63 mbar 2.93 m/s 295.76 Deg 0.11 µg/m3
2022-07-24 06:00 0.44 µg/m3 0.17 µg/m3 84 µg/m3 N/A N/A 25.47 °C 91.53 % 1,003.61 mbar 2.76 m/s 300.44 Deg 0.08 µg/m3
2022-07-24 05:00 0.34 µg/m3 0.2 µg/m3 80.51 µg/m3 N/A N/A 25.39 °C 90 % 1,003.44 mbar 3.1 m/s 306.52 Deg 0.08 µg/m3
2022-07-24 04:00 -0.03 µg/m3 0.18 µg/m3 80.18 µg/m3 N/A N/A 25.53 °C 91.52 % 1,003.45 mbar 3.28 m/s 304.84 Deg 0.07 µg/m3
2022-07-24 03:00 1.06 µg/m3 0.13 µg/m3 78.91 µg/m3 N/A N/A 25.42 °C 90.59 % 1,003.60 mbar 2.57 m/s 288.39 Deg 0.07 µg/m3
2022-07-24 02:00 1.36 µg/m3 0.16 µg/m3 76.81 µg/m3 N/A N/A 25.56 °C 89.82 % 1,003.96 mbar 2.62 m/s 279.26 Deg 0.07 µg/m3
2022-07-24 01:00 -0.25 µg/m3 0.23 µg/m3 79.46 µg/m3 N/A N/A 25.74 °C 89.29 % 1,004.24 mbar 2.73 m/s 272.46 Deg 0.07 µg/m3
2022-07-24 00:00 -0.28 µg/m3 0.2 µg/m3 81.65 µg/m3 N/A N/A 25.89 °C 88.16 % 1,004.61 mbar 2.54 m/s 272.39 Deg 0.07 µg/m3
2022-07-23 23:00 -0.19 µg/m3 0.25 µg/m3 86.77 µg/m3 N/A N/A 25.97 °C 86.92 % 1,004.70 mbar 2.32 m/s 295.42 Deg 0.07 µg/m3
2022-07-23 22:00 -0.25 µg/m3 0.33 µg/m3 89.44 µg/m3 N/A N/A 26.22 °C 83.95 % 1,004.68 mbar 2.5 m/s 298.24 Deg 0.07 µg/m3
2022-07-23 21:00 -0.23 µg/m3 0.38 µg/m3 88.62 µg/m3 N/A N/A 26.35 °C 82.41 % 1,004.43 mbar 2.54 m/s 283.79 Deg 0.08 µg/m3
2022-07-23 20:00 -0.22 µg/m3 0.4 µg/m3 87.17 µg/m3 N/A N/A 26.67 °C 81.77 % 1,003.99 mbar 3.31 m/s 250.05 Deg 0.08 µg/m3
2022-07-23 19:00 1.97 µg/m3 0.32 µg/m3 83.98 µg/m3 N/A N/A 27.21 °C 80.62 % 1,003.85 mbar 3.73 m/s 206.97 Deg 0.18 µg/m3
2022-07-23 18:00 -0.25 µg/m3 0.36 µg/m3 86.85 µg/m3 N/A N/A 27.8 °C 78.85 % 1,003.76 mbar 3.73 m/s 181.78 Deg 0.07 µg/m3
2022-07-23 17:00 -0.13 µg/m3 0.44 µg/m3 89.77 µg/m3 N/A N/A 27.81 °C 77.6 % 1,003.96 mbar 4.17 m/s 167.97 Deg 0.1 µg/m3
2022-07-23 16:00 0.13 µg/m3 0.29 µg/m3 96.36 µg/m3 N/A N/A 27.8 °C 80.79 % 1,004.21 mbar 4.44 m/s 200.99 Deg 0.12 µg/m3
2022-07-23 15:00 0.2 µg/m3 0.42 µg/m3 95.4 µg/m3 N/A N/A 27.95 °C 79.97 % 1,004.32 mbar 4.95 m/s 259.56 Deg 0.14 µg/m3
2022-07-23 14:00 0.14 µg/m3 0.38 µg/m3 87.84 µg/m3 N/A N/A 27.9 °C 78.46 % 1,004.55 mbar 5.25 m/s 168.02 Deg 0.12 µg/m3
2022-07-23 13:00 0.06 µg/m3 0.42 µg/m3 86.47 µg/m3 N/A N/A 27.73 °C 79.41 % 1,004.76 mbar 4.97 m/s 242.24 Deg 0.11 µg/m3
2022-07-23 12:00 0.14 µg/m3 0.37 µg/m3 90.97 µg/m3 N/A N/A 27.37 °C 80.34 % 1,004.95 mbar 5.09 m/s 177.67 Deg 0.12 µg/m3
2022-07-23 11:00 0.11 µg/m3 0.39 µg/m3 91.61 µg/m3 N/A N/A 27.15 °C 82.36 % 1,005.01 mbar 4.98 m/s 202.34 Deg 0.11 µg/m3
2022-07-23 10:00 0.71 µg/m3 0.4 µg/m3 93.54 µg/m3 N/A N/A 27.02 °C 83.56 % 1,004.81 mbar 4.79 m/s 201.2 Deg 0.21 µg/m3
2022-07-23 09:00 0.53 µg/m3 0.36 µg/m3 92.97 µg/m3 N/A N/A 26.56 °C 85.55 % 1,004.63 mbar 4.67 m/s 192.21 Deg 0.17 µg/m3
2022-07-23 08:00 -0.15 µg/m3 0.25 µg/m3 92.27 µg/m3 N/A N/A 26.33 °C 86.95 % 1,004.44 mbar 3.98 m/s 204.8 Deg 0.1 µg/m3
2022-07-23 07:00 -0.15 µg/m3 0.18 µg/m3 90.99 µg/m3 N/A N/A 25.83 °C 88.87 % 1,004.09 mbar 3.55 m/s 242.65 Deg 0.1 µg/m3
2022-07-23 06:00 -0.26 µg/m3 0.21 µg/m3 92.08 µg/m3 N/A N/A 25.34 °C 92.6 % 1,003.78 mbar 3.21 m/s 220.11 Deg 0.08 µg/m3
2022-07-23 05:00 -0.25 µg/m3 0.23 µg/m3 91.65 µg/m3 N/A N/A 25.29 °C 92.63 % 1,003.58 mbar 2.9 m/s 226.46 Deg 0.08 µg/m3
2022-07-23 04:00 0.02 µg/m3 0.28 µg/m3 86.71 µg/m3 N/A N/A 25.17 °C 92.78 % 1,003.47 mbar 2.38 m/s 212.24 Deg 0.07 µg/m3
2022-07-23 03:00 1.8 µg/m3 0.26 µg/m3 85.84 µg/m3 N/A N/A 25.15 °C 92.2 % 1,003.59 mbar 1.54 m/s 224.92 Deg 0.07 µg/m3
2022-07-23 02:00 0.35 µg/m3 0.27 µg/m3 84.39 µg/m3 N/A N/A 25.16 °C 91.76 % 1,003.78 mbar 1.05 m/s 221.15 Deg 0.06 µg/m3
2022-07-23 01:00 -0.28 µg/m3 0.17 µg/m3 85.86 µg/m3 N/A N/A 25.44 °C 90.3 % 1,003.86 mbar 0.95 m/s 234.6 Deg 0.06 µg/m3
2022-07-23 00:00 -0.22 µg/m3 0.3 µg/m3 82.92 µg/m3 N/A N/A 25.52 °C 89.48 % 1,004.03 mbar 1.09 m/s 206.63 Deg 0.06 µg/m3
2022-07-22 23:00 -0.37 µg/m3 0.32 µg/m3 87.61 µg/m3 N/A N/A 25.94 °C 88.55 % 1,004.16 mbar 1.46 m/s 243.63 Deg 0.06 µg/m3
2022-07-22 22:00 -0.38 µg/m3 0.33 µg/m3 91.12 µg/m3 N/A N/A 26.21 °C 85.02 % 1,004.08 mbar 1.54 m/s 253.63 Deg 0.06 µg/m3
2022-07-22 21:00 -0.27 µg/m3 0.35 µg/m3 91.11 µg/m3 N/A N/A 26.44 °C 83.19 % 1,003.71 mbar 1.93 m/s 259.98 Deg 0.07 µg/m3
2022-07-22 20:00 -0.19 µg/m3 0.37 µg/m3 92.16 µg/m3 N/A N/A 26.83 °C 81.26 % 1,003.29 mbar 2.51 m/s 231.97 Deg 0.07 µg/m3
2022-07-22 19:00 -0.24 µg/m3 0.44 µg/m3 92.65 µg/m3 N/A N/A 27.34 °C 79.55 % 1,003.29 mbar 3.07 m/s 153.7 Deg 0.06 µg/m3
2022-07-22 18:00 -0.4 µg/m3 0.32 µg/m3 87.27 µg/m3 N/A N/A 27.71 °C 78.61 % 1,003.13 mbar 3.7 m/s 96.83 Deg -0 µg/m3
2022-07-22 17:00 -0.19 µg/m3 0.4 µg/m3 95.66 µg/m3 N/A N/A 27.87 °C 79.19 % 1,003.06 mbar 4.26 m/s 187.3 Deg 0.08 µg/m3
2022-07-22 16:00 -0.11 µg/m3 0.39 µg/m3 93.92 µg/m3 N/A N/A 27.82 °C 80.08 % 1,003.17 mbar 4.31 m/s 145.44 Deg 0.07 µg/m3
2022-07-22 15:00 -0.06 µg/m3 0.47 µg/m3 95.27 µg/m3 N/A N/A 27.81 °C 81.83 % 1,003.31 mbar 4.37 m/s 140.62 Deg 0.09 µg/m3
2022-07-22 14:00 0.09 µg/m3 0.44 µg/m3 103.96 µg/m3 N/A N/A 27.59 °C 82.09 % 1,003.63 mbar 4.03 m/s 169.27 Deg 0.1 µg/m3
2022-07-22 13:00 0.05 µg/m3 0.51 µg/m3 103.92 µg/m3 N/A N/A 27.56 °C 81.69 % 1,003.90 mbar 3.5 m/s 217.73 Deg 0.12 µg/m3
2022-07-22 12:00 0.29 µg/m3 0.6 µg/m3 112.41 µg/m3 N/A N/A 27.51 °C 80.14 % 1,004.08 mbar 3.26 m/s 129.74 Deg 0.12 µg/m3
2022-07-22 11:00 0.28 µg/m3 0.45 µg/m3 110.95 µg/m3 N/A N/A 27.12 °C 83.29 % 1,004.17 mbar 3.7 m/s 232.45 Deg 0.12 µg/m3
2022-07-22 10:00 0.01 µg/m3 0.46 µg/m3 112.06 µg/m3 N/A N/A 26.85 °C 85.26 % 1,004.10 mbar 2.91 m/s 170.68 Deg 0.09 µg/m3
2022-07-22 09:00 0.09 µg/m3 0.44 µg/m3 113.8 µg/m3 N/A N/A 26.67 °C 85.86 % 1,003.65 mbar 2.05 m/s 243.2 Deg 0.1 µg/m3
2022-07-22 08:00 0.21 µg/m3 0.39 µg/m3 108.38 µg/m3 N/A N/A 26.01 °C 88.29 % 1,003.25 mbar 2.39 m/s 312.14 Deg 0.11 µg/m3
2022-07-22 07:00 0.01 µg/m3 0.29 µg/m3 98.97 µg/m3 N/A N/A 25.55 °C 90.66 % 1,003.01 mbar 1.62 m/s 304.23 Deg 0.09 µg/m3
2022-07-22 06:00 -0.18 µg/m3 0.32 µg/m3 101.54 µg/m3 N/A N/A 25 °C 92.06 % 1,002.74 mbar 1.42 m/s 318.47 Deg 0.06 µg/m3
2022-07-22 05:00 -0.2 µg/m3 0.38 µg/m3 99.03 µg/m3 N/A N/A 25.01 °C 90.79 % 1,002.44 mbar 1.61 m/s 319.77 Deg 0.06 µg/m3
2022-07-22 04:00 -0.03 µg/m3 0.4 µg/m3 101.94 µg/m3 N/A N/A 25.11 °C 88.93 % 1,002.38 mbar 1.58 m/s 287.97 Deg 0.07 µg/m3
2022-07-22 03:00 1.68 µg/m3 0.49 µg/m3 104.6 µg/m3 N/A N/A 25.34 °C 86.21 % 1,002.47 mbar 1.19 m/s 273.53 Deg 0.06 µg/m3
2022-07-22 02:00 0.05 µg/m3 0.52 µg/m3 101.94 µg/m3 N/A N/A 25.45 °C 83.43 % 1,002.68 mbar 0.72 m/s 255.92 Deg 0.07 µg/m3
2022-07-22 01:00 -0.3 µg/m3 0.65 µg/m3 100.47 µg/m3 N/A N/A 25.61 °C 81.08 % 1,003.11 mbar 0.77 m/s 242.99 Deg 0.06 µg/m3
2022-07-22 00:00 -0.35 µg/m3 0.69 µg/m3 102.87 µg/m3 N/A N/A 25.92 °C 78.16 % 1,003.38 mbar 1.42 m/s 218.78 Deg 0.06 µg/m3
2022-07-21 23:00 -0.34 µg/m3 0.74 µg/m3 101.5 µg/m3 N/A N/A 26.06 °C 76.39 % 1,003.56 mbar 1.19 m/s 219.28 Deg 0.06 µg/m3
2022-07-21 22:00 -0.32 µg/m3 0.69 µg/m3 99.16 µg/m3 N/A N/A 26.17 °C 76.42 % 1,003.63 mbar 0.99 m/s 205.77 Deg 0.05 µg/m3
2022-07-21 21:00 -0.09 µg/m3 0.73 µg/m3 92.11 µg/m3 N/A N/A 26.29 °C 76.27 % 1,003.32 mbar 0.87 m/s 283.79 Deg 0.05 µg/m3
2022-07-21 20:00 0.18 µg/m3 0.77 µg/m3 90.49 µg/m3 N/A N/A 26.59 °C 73.9 % 1,002.99 mbar 1.3 m/s 222.23 Deg 0.07 µg/m3
2022-07-21 19:00 -0.23 µg/m3 0.72 µg/m3 98.52 µg/m3 N/A N/A 27.05 °C 76.18 % 1,002.93 mbar 2.36 m/s 242.18 Deg 0.07 µg/m3
2022-07-21 18:00 -0.11 µg/m3 0.72 µg/m3 98.51 µg/m3 N/A N/A 27.53 °C 73.01 % 1,002.86 mbar 2.84 m/s 233.88 Deg 0.08 µg/m3
2022-07-21 17:00 0.01 µg/m3 0.7 µg/m3 97.98 µg/m3 N/A N/A 27.63 °C 73.02 % 1,003.04 mbar 3.36 m/s 131.7 Deg 0.08 µg/m3
2022-07-21 16:00 0.2 µg/m3 0.9 µg/m3 112.67 µg/m3 N/A N/A 27.62 °C 72.59 % 1,003.38 mbar 4.05 m/s 195.47 Deg 0.1 µg/m3
2022-07-21 15:00 0.19 µg/m3 0.89 µg/m3 101.02 µg/m3 N/A N/A 27.6 °C 70.18 % 1,003.65 mbar 4.23 m/s 105.42 Deg 0.1 µg/m3
2022-07-21 14:00 0.36 µg/m3 1.16 µg/m3 109.24 µg/m3 N/A N/A 27.35 °C 71.79 % 1,003.85 mbar 4.07 m/s 215.45 Deg 0.12 µg/m3
2022-07-21 13:00 0.79 µg/m3 1.48 µg/m3 116.74 µg/m3 N/A N/A 27.23 °C 74.99 % 1,004.00 mbar 3.76 m/s 180.49 Deg 0.16 µg/m3
2022-07-21 12:00 0.77 µg/m3 1.58 µg/m3 115.42 µg/m3 N/A N/A 26.87 °C 76.46 % 1,004.32 mbar 3.43 m/s 254.47 Deg 0.29 µg/m3
2022-07-21 11:00 3.54 µg/m3 2.03 µg/m3 110.36 µg/m3 N/A N/A 26.72 °C 79.08 % 1,004.47 mbar 3 m/s 217 Deg 0.63 µg/m3
2022-07-21 10:00 3.57 µg/m3 1.66 µg/m3 104.14 µg/m3 N/A N/A 26.72 °C 80.87 % 1,004.42 mbar 2.86 m/s 283.18 Deg 0.62 µg/m3
2022-07-21 09:00 0.54 µg/m3 0.61 µg/m3 110.32 µg/m3 N/A N/A 26.18 °C 85.81 % 1,004.40 mbar 2.76 m/s 327.52 Deg 0.25 µg/m3
2022-07-21 08:00 1.18 µg/m3 0.44 µg/m3 120.64 µg/m3 N/A N/A 25.91 °C 88.2 % 1,004.22 mbar 2.36 m/s 322.07 Deg 0.32 µg/m3
2022-07-21 07:00 0.67 µg/m3 0.34 µg/m3 123.58 µg/m3 N/A N/A 25.39 °C 90.5 % 1,003.87 mbar 1.46 m/s 300.46 Deg 0.11 µg/m3
2022-07-21 06:00 -0.08 µg/m3 0.44 µg/m3 123.17 µg/m3 N/A N/A 24.88 °C 92.24 % 1,003.50 mbar 0.79 m/s 304.5 Deg 0.07 µg/m3
2022-07-21 05:00 -0.28 µg/m3 0.44 µg/m3 114.94 µg/m3 N/A N/A 24.91 °C 89.67 % 1,003.25 mbar 1.08 m/s 341.27 Deg 0.06 µg/m3
2022-07-21 04:00 -0.13 µg/m3 0.51 µg/m3 118.11 µg/m3 N/A N/A 25 °C 88.28 % 1,003.23 mbar 0.99 m/s 338.67 Deg 0.06 µg/m3
2022-07-21 03:00 1.23 µg/m3 0.59 µg/m3 122.77 µg/m3 N/A N/A 25.22 °C 85.93 % 1,003.41 mbar 0.98 m/s 320.31 Deg 0.06 µg/m3
2022-07-21 02:00 0.11 µg/m3 0.64 µg/m3 126.88 µg/m3 N/A N/A 25.38 °C 81.3 % 1,003.60 mbar 0.59 m/s 236.74 Deg 0.06 µg/m3
2022-07-21 01:00 -0.06 µg/m3 0.71 µg/m3 126.29 µg/m3 N/A N/A 25.48 °C 81.05 % 1,003.85 mbar 0.52 m/s 208.85 Deg 0.06 µg/m3
2022-07-21 00:00 -0.21 µg/m3 0.64 µg/m3 128.57 µg/m3 N/A N/A 25.68 °C 80.78 % 1,004.08 mbar 0.79 m/s 98.93 Deg 0.06 µg/m3
2022-07-20 23:00 -0.32 µg/m3 0.63 µg/m3 125.73 µg/m3 N/A N/A 25.79 °C 80.38 % 1,004.33 mbar 0.69 m/s 178.18 Deg 0.06 µg/m3
2022-07-20 22:00 -0.29 µg/m3 0.71 µg/m3 123.88 µg/m3 N/A N/A 25.88 °C 79.88 % 1,004.40 mbar 0.62 m/s 54.45 Deg 0.05 µg/m3
2022-07-20 21:00 0.31 µg/m3 0.75 µg/m3 120.54 µg/m3 N/A N/A 26.13 °C 77.74 % 1,004.11 mbar 0.78 m/s 206.48 Deg 0.07 µg/m3
2022-07-20 20:00 -0.11 µg/m3 0.94 µg/m3 129.65 µg/m3 N/A N/A 26.45 °C 75.72 % 1,003.88 mbar 0.91 m/s 265.65 Deg 0.06 µg/m3
2022-07-20 19:00 -0.09 µg/m3 1.14 µg/m3 134.82 µg/m3 N/A N/A 27.09 °C 72.83 % 1,003.75 mbar 2.1 m/s 179.11 Deg 0.07 µg/m3
2022-07-20 18:00 0.03 µg/m3 1.12 µg/m3 134.97 µg/m3 N/A N/A 27.4 °C 72.12 % 1,003.73 mbar 2.53 m/s 133.41 Deg 0.07 µg/m3
2022-07-20 17:00 0.09 µg/m3 1.29 µg/m3 128.36 µg/m3 N/A N/A 27.77 °C 66.94 % 1,003.68 mbar 3.9 m/s 94.13 Deg 0.09 µg/m3
2022-07-20 16:00 0.13 µg/m3 1.36 µg/m3 131.2 µg/m3 N/A N/A 27.94 °C 65.32 % 1,004.02 mbar 4.39 m/s 141.8 Deg 0.09 µg/m3
2022-07-20 15:00 0.45 µg/m3 1.34 µg/m3 132.63 µg/m3 N/A N/A 27.88 °C 67.91 % 1,004.39 mbar 4.57 m/s 143.77 Deg 0.12 µg/m3
2022-07-20 14:00 0.42 µg/m3 1.56 µg/m3 133.48 µg/m3 N/A N/A 28.28 °C 65.14 % 1,004.65 mbar 4.63 m/s 103.78 Deg 0.12 µg/m3
2022-07-20 13:00 1.83 µg/m3 1.78 µg/m3 143.84 µg/m3 N/A N/A 28.76 °C 61.89 % 1,005.05 mbar 3.7 m/s 106.34 Deg 0.22 µg/m3
2022-07-20 12:00 2.87 µg/m3 2.04 µg/m3 139.1 µg/m3 N/A N/A 29.78 °C 55.01 % 1,005.07 mbar 4.31 m/s 149.33 Deg 0.28 µg/m3
2022-07-20 11:00 1.79 µg/m3 2.77 µg/m3 132.11 µg/m3 N/A N/A 30.32 °C 42.46 % 1,004.98 mbar 3.16 m/s 66.2 Deg 0.2 µg/m3
2022-07-20 10:00 4.45 µg/m3 2.29 µg/m3 122.19 µg/m3 N/A N/A 29.28 °C 56.74 % 1,004.86 mbar 2.75 m/s 114.6 Deg 0.65 µg/m3
2022-07-20 09:00 5.69 µg/m3 1.62 µg/m3 104.4 µg/m3 N/A N/A 27.71 °C 70.24 % 1,004.46 mbar 3.48 m/s 98.63 Deg 0.94 µg/m3
2022-07-20 08:00 5.79 µg/m3 1.27 µg/m3 100.87 µg/m3 N/A N/A 26.7 °C 76.32 % 1,004.11 mbar 4.43 m/s 274.22 Deg 0.75 µg/m3
2022-07-20 07:00 4.63 µg/m3 0.83 µg/m3 102.7 µg/m3 N/A N/A 26.04 °C 80.05 % 1,003.77 mbar 2.56 m/s 19.18 Deg 0.38 µg/m3
2022-07-20 06:00 3.45 µg/m3 0.69 µg/m3 96.53 µg/m3 N/A N/A 25.08 °C 85.99 % 1,003.37 mbar 1.98 m/s 58.1 Deg 0.17 µg/m3
2022-07-20 05:00 2.92 µg/m3 1.03 µg/m3 102 µg/m3 N/A N/A 25.2 °C 80.86 % 1,003.07 mbar 1.85 m/s 59.73 Deg 0.08 µg/m3
2022-07-20 04:00 4.35 µg/m3 1.03 µg/m3 99.08 µg/m3 N/A N/A 25.47 °C 80.96 % 1,002.95 mbar 1.21 m/s 111.59 Deg 0.08 µg/m3
2022-07-20 03:00 4.52 µg/m3 0.74 µg/m3 107.43 µg/m3 N/A N/A 25.55 °C 82.04 % 1,003.01 mbar 1.08 m/s 105.98 Deg 0.08 µg/m3
2022-07-20 02:00 4.52 µg/m3 0.63 µg/m3 105.94 µg/m3 N/A N/A 25.52 °C 82.81 % 1,003.17 mbar 1.4 m/s 110.35 Deg 0.06 µg/m3
2022-07-20 01:00 4.37 µg/m3 0.64 µg/m3 104.64 µg/m3 N/A N/A 25.98 °C 78.59 % 1,003.45 mbar 1.27 m/s 100.38 Deg 0.07 µg/m3
2022-07-20 00:00 2.14 µg/m3 0.61 µg/m3 113.75 µg/m3 N/A N/A 26.49 °C 72.46 % 1,003.57 mbar 0.51 m/s 115 Deg 0.07 µg/m3
2022-07-19 23:00 4.01 µg/m3 0.58 µg/m3 108.29 µg/m3 N/A N/A 26.42 °C 76.46 % 1,003.74 mbar 1.14 m/s 134.54 Deg 0.07 µg/m3
2022-07-19 22:00 2.13 µg/m3 0.4 µg/m3 117.02 µg/m3 N/A N/A 25.99 °C 83.7 % 1,003.57 mbar 2.35 m/s 117.5 Deg 0.07 µg/m3
2022-07-19 21:00 0.96 µg/m3 0.41 µg/m3 115.71 µg/m3 N/A N/A 25.85 °C 86.58 % 1,003.37 mbar 2.47 m/s 72.28 Deg 0.08 µg/m3
2022-07-19 20:00 4.27 µg/m3 0.36 µg/m3 108.87 µg/m3 N/A N/A 26.18 °C 87.4 % 1,003.16 mbar 3.04 m/s 127.34 Deg 0.08 µg/m3
2022-07-19 19:00 0.69 µg/m3 0.58 µg/m3 115.6 µg/m3 N/A N/A 27.02 °C 82.54 % 1,003.19 mbar 2.48 m/s 192.15 Deg 0.11 µg/m3
2022-07-19 18:00 0.45 µg/m3 0.72 µg/m3 125.8 µg/m3 N/A N/A 27.09 °C 83.38 % 1,003.27 mbar 3.96 m/s 317.35 Deg 0.32 µg/m3
2022-07-19 17:00 0.54 µg/m3 1.13 µg/m3 142.83 µg/m3 N/A N/A 27.8 °C 76.24 % 1,003.35 mbar 3.16 m/s 285.43 Deg 0.12 µg/m3
2022-07-19 16:00 0.29 µg/m3 1.05 µg/m3 136.24 µg/m3 N/A N/A 27.84 °C 75.52 % 1,003.48 mbar 2.98 m/s 208.65 Deg 0.11 µg/m3
2022-07-19 15:00 0.13 µg/m3 1.15 µg/m3 124.32 µg/m3 N/A N/A 28.17 °C 71.57 % 1,003.61 mbar 3.18 m/s 307.43 Deg 0.1 µg/m3
2022-07-19 14:00 0.55 µg/m3 1.18 µg/m3 131.57 µg/m3 N/A N/A 28.19 °C 74.43 % 1,004.05 mbar 3.5 m/s 260.69 Deg 0.11 µg/m3
2022-07-19 13:00 1.68 µg/m3 1.49 µg/m3 141.17 µg/m3 N/A N/A 29.23 °C 70.1 % 1,004.31 mbar 4.27 m/s 235.43 Deg 0.15 µg/m3
2022-07-19 12:00 2.92 µg/m3 2.53 µg/m3 152.58 µg/m3 N/A N/A 29.31 °C 64.85 % 1,004.56 mbar 4.37 m/s 310.75 Deg 0.19 µg/m3
2022-07-19 11:00 2.52 µg/m3 2.53 µg/m3 144.6 µg/m3 N/A N/A 29.47 °C 61.12 % 1,004.59 mbar 4.43 m/s 255.65 Deg 0.23 µg/m3
2022-07-19 10:00 2.05 µg/m3 2.48 µg/m3 141.21 µg/m3 N/A N/A 29.6 °C 51.83 % 1,004.35 mbar 5.62 m/s 147.83 Deg 0.23 µg/m3
2022-07-19 09:00 3.43 µg/m3 4.5 µg/m3 133.49 µg/m3 N/A N/A 29.8 °C 48.14 % 1,004.01 mbar 5.4 m/s 172.85 Deg 0.36 µg/m3
2022-07-19 08:00 7.19 µg/m3 2.35 µg/m3 110.84 µg/m3 N/A N/A 29.04 °C 54.19 % 1,003.95 mbar 4.62 m/s 158.58 Deg 0.77 µg/m3
2022-07-19 07:00 11.8 µg/m3 1.48 µg/m3 88.43 µg/m3 N/A N/A 27.79 °C 59.76 % 1,003.71 mbar 2.67 m/s 187.81 Deg 0.94 µg/m3
2022-07-19 06:00 12.31 µg/m3 0.77 µg/m3 70.34 µg/m3 N/A N/A 25.98 °C 75.51 % 1,003.35 mbar 2.6 m/s 75.8 Deg 0.36 µg/m3
2022-07-19 05:00 10.53 µg/m3 1.11 µg/m3 76.63 µg/m3 N/A N/A 26.34 °C 67.69 % 1,003.13 mbar 2.86 m/s 257.3 Deg 0.08 µg/m3
2022-07-19 04:00 5.46 µg/m3 1.23 µg/m3 100.55 µg/m3 N/A N/A 27.15 °C 51.54 % 1,003.09 mbar 2.7 m/s 235.09 Deg 0.07 µg/m3
2022-07-19 03:00 5.73 µg/m3 1.03 µg/m3 90.97 µg/m3 N/A N/A 26.83 °C 54.72 % 1,003.26 mbar 2.41 m/s 239.12 Deg 0.07 µg/m3
2022-07-19 02:00 7.02 µg/m3 1.06 µg/m3 86.27 µg/m3 N/A N/A 26.08 °C 71.82 % 1,003.48 mbar 1.92 m/s 175.94 Deg 0.25 µg/m3
2022-07-19 01:00 5.42 µg/m3 0.74 µg/m3 91.53 µg/m3 N/A N/A 25.67 °C 80.95 % 1,003.82 mbar 3.43 m/s 45.37 Deg 0.08 µg/m3
2022-07-19 00:00 2.94 µg/m3 0.56 µg/m3 100.21 µg/m3 N/A N/A 25.78 °C 80.94 % 1,004.02 mbar 3.29 m/s 25.32 Deg 0.07 µg/m3
2022-07-18 23:00 8.15 µg/m3 0.61 µg/m3 89.97 µg/m3 N/A N/A 25.68 °C 83.08 % 1,004.26 mbar 3.72 m/s 47.03 Deg 0.09 µg/m3
2022-07-18 22:00 6.57 µg/m3 0.51 µg/m3 92.93 µg/m3 N/A N/A 25.91 °C 81.75 % 1,004.30 mbar 3.89 m/s 90.33 Deg 0.09 µg/m3
2022-07-18 21:00 7.2 µg/m3 0.69 µg/m3 98.66 µg/m3 N/A N/A 26.16 °C 77.86 % 1,004.20 mbar 3.51 m/s 302.91 Deg 0.08 µg/m3
2022-07-18 20:00 11.61 µg/m3 1.14 µg/m3 98.31 µg/m3 N/A N/A 26.29 °C 76.83 % 1,004.02 mbar 3.41 m/s 221.88 Deg 0.11 µg/m3
2022-07-18 19:00 16.54 µg/m3 1.47 µg/m3 90.15 µg/m3 N/A N/A 26.74 °C 78.43 % 1,003.78 mbar 2.99 m/s 173.54 Deg 0.73 µg/m3
2022-07-18 18:00 3.16 µg/m3 1.33 µg/m3 125.93 µg/m3 N/A N/A 27.15 °C 73.52 % 1,003.59 mbar 3.27 m/s 272.59 Deg 0.4 µg/m3
2022-07-18 17:00 1.31 µg/m3 1.85 µg/m3 133.67 µg/m3 N/A N/A 27.63 °C 72.17 % 1,003.81 mbar 2.71 m/s 272.52 Deg 0.19 µg/m3
2022-07-18 16:00 2.03 µg/m3 1.97 µg/m3 125.76 µg/m3 N/A N/A 27.62 °C 74.79 % 1,004.28 mbar 2.77 m/s 256.62 Deg 0.3 µg/m3
2022-07-18 15:00 1.04 µg/m3 2 µg/m3 129.4 µg/m3 N/A N/A 27.69 °C 75.15 % 1,004.53 mbar 3.11 m/s 258.49 Deg 0.16 µg/m3
2022-07-18 14:00 2.51 µg/m3 2.19 µg/m3 125.14 µg/m3 N/A N/A 27.31 °C 77.72 % 1,004.76 mbar 3.76 m/s 303.73 Deg 0.36 µg/m3
2022-07-18 13:00 3.25 µg/m3 2.02 µg/m3 120.97 µg/m3 N/A N/A 27.36 °C 78.54 % 1,005.01 mbar 3.48 m/s 294.97 Deg 0.49 µg/m3
2022-07-18 12:00 4.33 µg/m3 2.43 µg/m3 119.76 µg/m3 N/A N/A 27.14 °C 78.98 % 1,005.22 mbar 3.29 m/s 284.63 Deg 0.71 µg/m3
2022-07-18 11:00 9.36 µg/m3 1.93 µg/m3 100.38 µg/m3 N/A N/A 26.77 °C 82.47 % 1,005.13 mbar 2.93 m/s 297.09 Deg 1.97 µg/m3
2022-07-18 10:00 8.58 µg/m3 1.15 µg/m3 91.89 µg/m3 N/A N/A 26.72 °C 81.62 % 1,004.88 mbar 2.73 m/s 298.45 Deg 1.95 µg/m3
2022-07-18 09:00 6.03 µg/m3 1.05 µg/m3 96.38 µg/m3 N/A N/A 26.75 °C 76.4 % 1,004.66 mbar 2.29 m/s 251.7 Deg 1.14 µg/m3
2022-07-18 08:00 3.97 µg/m3 0.87 µg/m3 100.88 µg/m3 N/A N/A 26.49 °C 72.57 % 1,004.41 mbar 2.05 m/s 294.09 Deg 0.65 µg/m3
2022-07-18 07:00 2.63 µg/m3 0.37 µg/m3 87.78 µg/m3 N/A N/A 25.39 °C 87.88 % 1,004.22 mbar 1.45 m/s 335.93 Deg 0.36 µg/m3
2022-07-18 06:00 3.3 µg/m3 0.3 µg/m3 83.33 µg/m3 N/A N/A 24.86 °C 90.74 % 1,004.01 mbar 1.4 m/s 311.93 Deg 0.14 µg/m3
2022-07-18 05:00 0.87 µg/m3 0.34 µg/m3 99.84 µg/m3 N/A N/A 24.64 °C 88.57 % 1,003.97 mbar 1.65 m/s 342.01 Deg 0.07 µg/m3
2022-07-18 04:00 1.39 µg/m3 0.35 µg/m3 97.12 µg/m3 N/A N/A 24.61 °C 88.96 % 1,003.97 mbar 1.1 m/s 319.06 Deg 0.07 µg/m3
2022-07-18 03:00 2.86 µg/m3 0.45 µg/m3 100.68 µg/m3 N/A N/A 25 °C 80.68 % 1,004.06 mbar 0.98 m/s 273.51 Deg 0.06 µg/m3
2022-07-18 02:00 2.68 µg/m3 0.61 µg/m3 105.39 µg/m3 N/A N/A 25.45 °C 72.88 % 1,004.09 mbar 1.13 m/s 239.91 Deg 0.06 µg/m3
2022-07-18 01:00 2.05 µg/m3 0.65 µg/m3 108.2 µg/m3 N/A N/A 26.04 °C 61.17 % 1,004.31 mbar 1.67 m/s 223.8 Deg 0.07 µg/m3
2022-07-18 00:00 6.88 µg/m3 0.33 µg/m3 80.27 µg/m3 N/A N/A 25.28 °C 74.29 % 1,004.62 mbar 1.44 m/s 169.43 Deg 0.09 µg/m3
2022-07-17 23:00 5.08 µg/m3 0.33 µg/m3 76.02 µg/m3 N/A N/A 24.68 °C 91.14 % 1,004.84 mbar 1.78 m/s 13.58 Deg 0.08 µg/m3
2022-07-17 22:00 5.62 µg/m3 0.34 µg/m3 84.78 µg/m3 N/A N/A 24.96 °C 91 % 1,004.78 mbar 2.87 m/s 17.03 Deg 0.08 µg/m3
2022-07-17 21:00 6.44 µg/m3 0.52 µg/m3 100.15 µg/m3 N/A N/A 25.59 °C 83.17 % 1,004.49 mbar 3.65 m/s 174.63 Deg 0.08 µg/m3
2022-07-17 20:00 -0.07 µg/m3 0.51 µg/m3 117.38 µg/m3 N/A N/A 25.83 °C 77.56 % 1,003.93 mbar 3.12 m/s 340.22 Deg 0.07 µg/m3
2022-07-17 19:00 0.28 µg/m3 0.53 µg/m3 104.14 µg/m3 N/A N/A 26.24 °C 78.54 % 1,003.80 mbar 2.76 m/s 280.09 Deg 0.51 µg/m3
2022-07-17 18:00 0.3 µg/m3 0.43 µg/m3 94.81 µg/m3 N/A N/A 26.35 °C 83.83 % 1,003.78 mbar 3.28 m/s 307.71 Deg 0.37 µg/m3
2022-07-17 17:00 -0.15 µg/m3 0.53 µg/m3 95.45 µg/m3 N/A N/A 26.67 °C 79.91 % 1,003.92 mbar 3.78 m/s 134.31 Deg 0.09 µg/m3
2022-07-17 16:00 0.12 µg/m3 0.67 µg/m3 112.3 µg/m3 N/A N/A 26.93 °C 75.61 % 1,004.22 mbar 3.96 m/s 220.58 Deg 0.11 µg/m3
2022-07-17 15:00 0.23 µg/m3 0.71 µg/m3 111.18 µg/m3 N/A N/A 27.19 °C 69.97 % 1,004.38 mbar 3.75 m/s 213.12 Deg 0.1 µg/m3
2022-07-17 14:00 0.13 µg/m3 0.65 µg/m3 109.42 µg/m3 N/A N/A 26.84 °C 73.44 % 1,004.35 mbar 3.35 m/s 233.2 Deg 0.1 µg/m3
2022-07-17 13:00 0.12 µg/m3 0.6 µg/m3 107.86 µg/m3 N/A N/A 26.42 °C 77.54 % 1,004.43 mbar 3.14 m/s 245.53 Deg 0.1 µg/m3
2022-07-17 12:00 0.2 µg/m3 0.69 µg/m3 108.97 µg/m3 N/A N/A 26.37 °C 79.07 % 1,004.64 mbar 3 m/s 260.1 Deg 0.12 µg/m3
2022-07-17 11:00 0.36 µg/m3 0.69 µg/m3 108.22 µg/m3 N/A N/A 26.12 °C 80.73 % 1,004.70 mbar 3.39 m/s 219.93 Deg 0.13 µg/m3
2022-07-17 10:00 0.78 µg/m3 0.75 µg/m3 111.42 µg/m3 N/A N/A 26.29 °C 75.8 % 1,004.48 mbar 2.71 m/s 226.3 Deg 0.17 µg/m3
2022-07-17 09:00 1.01 µg/m3 0.76 µg/m3 105.7 µg/m3 N/A N/A 26.01 °C 79.22 % 1,004.29 mbar 2.35 m/s 194.03 Deg 0.2 µg/m3
2022-07-17 08:00 0.96 µg/m3 0.6 µg/m3 99.81 µg/m3 N/A N/A 25.89 °C 78.38 % 1,004.05 mbar 1.54 m/s 254.78 Deg 0.19 µg/m3
2022-07-17 07:00 1.5 µg/m3 0.4 µg/m3 88.5 µg/m3 N/A N/A 24.73 °C 89.14 % 1,003.59 mbar 1.23 m/s 322.99 Deg 0.22 µg/m3
2022-07-17 06:00 2.1 µg/m3 0.32 µg/m3 81.4 µg/m3 N/A N/A 23.67 °C 96.49 % 1,002.99 mbar 1.53 m/s 6.56 Deg 0.11 µg/m3
2022-07-17 05:00 3.43 µg/m3 0.36 µg/m3 81.65 µg/m3 N/A N/A 23.59 °C 97.12 % 1,002.69 mbar 1.27 m/s 96.99 Deg 0.08 µg/m3
2022-07-17 04:00 1.54 µg/m3 0.32 µg/m3 90.7 µg/m3 N/A N/A 23.91 °C 96.87 % 1,002.68 mbar 1.59 m/s 332.81 Deg 0.07 µg/m3
2022-07-17 03:00 2.91 µg/m3 0.32 µg/m3 94.54 µg/m3 N/A N/A 24.01 °C 95.54 % 1,002.91 mbar 1.08 m/s 304.73 Deg 0.06 µg/m3
2022-07-17 02:00 1.93 µg/m3 0.35 µg/m3 92.76 µg/m3 N/A N/A 24.11 °C 95.15 % 1,003.17 mbar 1.38 m/s 329.7 Deg 0.07 µg/m3
2022-07-17 01:00 -0.17 µg/m3 0.29 µg/m3 89.43 µg/m3 N/A N/A 24.13 °C 93.9 % 1,003.44 mbar 1.36 m/s 331.17 Deg 0.07 µg/m3
2022-07-17 00:00 2.38 µg/m3 0.29 µg/m3 81.89 µg/m3 N/A N/A 24.23 °C 93.93 % 1,003.66 mbar 1.69 m/s 341.24 Deg 0.06 µg/m3
2022-07-16 23:00 -0.19 µg/m3 0.24 µg/m3 84.54 µg/m3 N/A N/A 24.42 °C 91.96 % 1,003.77 mbar 2.15 m/s 344.77 Deg 0.07 µg/m3
2022-07-16 22:00 -0.34 µg/m3 0.27 µg/m3 81.42 µg/m3 N/A N/A 24.5 °C 90.51 % 1,003.69 mbar 1.97 m/s 325.57 Deg 0.07 µg/m3
2022-07-16 21:00 -0.31 µg/m3 0.32 µg/m3 81.96 µg/m3 N/A N/A 24.64 °C 88.33 % 1,003.42 mbar 1.91 m/s 305.38 Deg 0.07 µg/m3
2022-07-16 20:00 -0.31 µg/m3 0.33 µg/m3 82.39 µg/m3 N/A N/A 24.93 °C 85.18 % 1,002.87 mbar 2.53 m/s 272.41 Deg 0.07 µg/m3
2022-07-16 19:00 0.22 µg/m3 0.44 µg/m3 83.83 µg/m3 N/A N/A 25.44 °C 81.96 % 1,002.62 mbar 3.41 m/s 217.81 Deg 0.1 µg/m3
2022-07-16 18:00 0.15 µg/m3 0.53 µg/m3 90.24 µg/m3 N/A N/A 25.76 °C 80.44 % 1,002.50 mbar 3.9 m/s 213.45 Deg 0.13 µg/m3
2022-07-16 17:00 -0.17 µg/m3 0.47 µg/m3 87.82 µg/m3 N/A N/A 25.92 °C 81.02 % 1,002.60 mbar 4.68 m/s 145.78 Deg 0.08 µg/m3
2022-07-16 16:00 0.02 µg/m3 0.54 µg/m3 91.45 µg/m3 N/A N/A 26.06 °C 79.74 % 1,002.94 mbar 4.53 m/s 165.83 Deg 0.1 µg/m3
2022-07-16 15:00 0.07 µg/m3 0.62 µg/m3 94.64 µg/m3 N/A N/A 26.29 °C 72.99 % 1,003.05 mbar 4.09 m/s 192.46 Deg 0.11 µg/m3
2022-07-16 14:00 0.02 µg/m3 0.55 µg/m3 89.86 µg/m3 N/A N/A 25.92 °C 75.14 % 1,003.04 mbar 4.01 m/s 180.65 Deg 0.1 µg/m3
2022-07-16 13:00 0.24 µg/m3 0.61 µg/m3 104.44 µg/m3 N/A N/A 25.8 °C 75.3 % 1,003.11 mbar 3.59 m/s 184.26 Deg 0.12 µg/m3
2022-07-16 12:00 0.59 µg/m3 0.8 µg/m3 113.92 µg/m3 N/A N/A 25.62 °C 76.48 % 1,003.23 mbar 3.5 m/s 199.14 Deg 0.15 µg/m3
2022-07-16 11:00 0.93 µg/m3 0.95 µg/m3 125.59 µg/m3 N/A N/A 25.83 °C 66.56 % 1,003.24 mbar 2.78 m/s 184.59 Deg 0.16 µg/m3
2022-07-16 10:00 1.61 µg/m3 0.93 µg/m3 125.79 µg/m3 N/A N/A 25.39 °C 74.18 % 1,002.95 mbar 2.76 m/s 171.75 Deg 0.26 µg/m3
2022-07-16 09:00 1.55 µg/m3 0.74 µg/m3 120.62 µg/m3 N/A N/A 25.17 °C 73.86 % 1,002.56 mbar 2.47 m/s 202.52 Deg 0.25 µg/m3
2022-07-16 08:00 1.22 µg/m3 0.72 µg/m3 117.69 µg/m3 N/A N/A 24.77 °C 76.57 % 1,002.45 mbar 2.14 m/s 176.39 Deg 0.2 µg/m3
2022-07-16 07:00 0.96 µg/m3 0.59 µg/m3 111.97 µg/m3 N/A N/A 24.32 °C 79.26 % 1,002.09 mbar 1.65 m/s 230.71 Deg 0.15 µg/m3
2022-07-16 06:00 0.04 µg/m3 0.43 µg/m3 108.12 µg/m3 N/A N/A 23.46 °C 83.21 % 1,001.87 mbar 1.66 m/s 279.63 Deg 0.07 µg/m3
2022-07-16 05:00 0.21 µg/m3 0.48 µg/m3 108.48 µg/m3 N/A N/A 23.23 °C 86.82 % 1,001.74 mbar 1.8 m/s 260.23 Deg 0.05 µg/m3
2022-07-16 04:00 1.62 µg/m3 0.57 µg/m3 108.15 µg/m3 N/A N/A 23.2 °C 89 % 1,001.73 mbar 1.36 m/s 255.78 Deg 0.07 µg/m3
2022-07-16 03:00 5.28 µg/m3 0.82 µg/m3 101.77 µg/m3 N/A N/A 23.4 °C 88.12 % 1,001.85 mbar 0.99 m/s 268.33 Deg 0.07 µg/m3
2022-07-16 02:00 5.06 µg/m3 0.8 µg/m3 103.09 µg/m3 N/A N/A 23.52 °C 87.86 % 1,001.99 mbar 0.76 m/s 287.05 Deg 0.06 µg/m3
2022-07-16 01:00 0.2 µg/m3 0.51 µg/m3 121.43 µg/m3 N/A N/A 23.67 °C 87.41 % 1,002.07 mbar 0.81 m/s 341.08 Deg 0.07 µg/m3
2022-07-16 00:00 0.73 µg/m3 0.46 µg/m3 117.92 µg/m3 N/A N/A 23.85 °C 87.52 % 1,002.20 mbar 1.36 m/s 265.98 Deg 0.06 µg/m3
2022-07-15 23:00 0.99 µg/m3 0.46 µg/m3 118.3 µg/m3 N/A N/A 23.97 °C 87.24 % 1,002.12 mbar 1.86 m/s 260.88 Deg 0.06 µg/m3
2022-07-15 22:00 1.3 µg/m3 0.48 µg/m3 119.69 µg/m3 N/A N/A 24.18 °C 87.36 % 1,001.99 mbar 2.56 m/s 339.35 Deg 0.07 µg/m3
2022-07-15 21:00 -0.27 µg/m3 0.41 µg/m3 114.58 µg/m3 N/A N/A 24.57 °C 86.21 % 1,001.69 mbar 3.18 m/s 335.3 Deg 0.07 µg/m3
2022-07-15 20:00 -0.3 µg/m3 0.41 µg/m3 100.95 µg/m3 N/A N/A 25.18 °C 84.1 % 1,001.40 mbar 2.93 m/s 294.31 Deg 0.06 µg/m3
2022-07-15 19:00 -0.21 µg/m3 0.59 µg/m3 108.72 µg/m3 N/A N/A 26.31 °C 75.56 % 1,001.31 mbar 2.26 m/s 274.07 Deg 0.07 µg/m3
2022-07-15 18:00 -0.1 µg/m3 0.68 µg/m3 113.55 µg/m3 N/A N/A 26.73 °C 71.36 % 1,001.13 mbar 2.3 m/s 165.2 Deg 0.07 µg/m3
2022-07-15 17:00 -0.14 µg/m3 0.65 µg/m3 112.21 µg/m3 N/A N/A 26.57 °C 75.06 % 1,001.02 mbar 3.03 m/s 127.24 Deg 0.08 µg/m3
2022-07-15 16:00 -0.11 µg/m3 0.61 µg/m3 107.83 µg/m3 N/A N/A 26.48 °C 77.33 % 1,001.31 mbar 2.8 m/s 164.61 Deg 0.09 µg/m3
2022-07-15 15:00 -0.03 µg/m3 0.61 µg/m3 105.35 µg/m3 N/A N/A 26.71 °C 75.59 % 1,001.40 mbar 2.41 m/s 248.15 Deg 0.1 µg/m3
2022-07-15 14:00 0.01 µg/m3 0.6 µg/m3 106.71 µg/m3 N/A N/A 26.73 °C 74.4 % 1,001.68 mbar 2.49 m/s 163.82 Deg 0.1 µg/m3
2022-07-15 13:00 -0.06 µg/m3 0.57 µg/m3 108.96 µg/m3 N/A N/A 26.19 °C 76.63 % 1,002.03 mbar 3.86 m/s 125.68 Deg 0.09 µg/m3
2022-07-15 12:00 0.01 µg/m3 0.63 µg/m3 109.67 µg/m3 N/A N/A 25.84 °C 77.93 % 1,002.31 mbar 4 m/s 114.55 Deg 0.1 µg/m3
2022-07-15 11:00 0.03 µg/m3 0.6 µg/m3 111.32 µg/m3 N/A N/A 25.59 °C 78.59 % 1,002.47 mbar 2.68 m/s 149.2 Deg 0.88 µg/m3
2022-07-15 10:00 0.04 µg/m3 0.56 µg/m3 111.64 µg/m3 N/A N/A 25.48 °C 77.82 % 1,002.39 mbar 2.71 m/s 188.06 Deg 0.1 µg/m3
2022-07-15 09:00 0.02 µg/m3 0.54 µg/m3 111.07 µg/m3 N/A N/A 25.11 °C 78.1 % 1,002.13 mbar 2.68 m/s 143.39 Deg 0.08 µg/m3
2022-07-15 08:00 0.04 µg/m3 0.52 µg/m3 110.99 µg/m3 N/A N/A 24.94 °C 76.01 % 1,001.79 mbar 2.56 m/s 201.1 Deg 0.1 µg/m3
2022-07-15 07:00 0.2 µg/m3 0.56 µg/m3 109.96 µg/m3 N/A N/A 24.58 °C 78.47 % 1,001.53 mbar 2.13 m/s 216.03 Deg 0.11 µg/m3
2022-07-15 06:00 0.28 µg/m3 0.53 µg/m3 103.18 µg/m3 N/A N/A 23.72 °C 83.6 % 1,001.22 mbar 2.63 m/s 252.73 Deg 0.09 µg/m3
2022-07-15 05:00 2.97 µg/m3 0.55 µg/m3 104.86 µg/m3 N/A N/A 23.48 °C 88.41 % 1,001.15 mbar 3.38 m/s 253.36 Deg 0.08 µg/m3
2022-07-15 04:00 0.16 µg/m3 0.4 µg/m3 109.62 µg/m3 N/A N/A 23.6 °C 88.92 % 1,001.21 mbar 3.63 m/s 247.08 Deg 0.07 µg/m3
2022-07-15 03:00 1.32 µg/m3 0.45 µg/m3 108.53 µg/m3 N/A N/A 23.76 °C 86.76 % 1,001.50 mbar 3.58 m/s 230.93 Deg 0.06 µg/m3
2022-07-15 02:00 0.32 µg/m3 0.47 µg/m3 109.96 µg/m3 N/A N/A 23.68 °C 86.67 % 1,001.98 mbar 2.4 m/s 220.82 Deg 0.06 µg/m3
2022-07-15 01:00 -0.08 µg/m3 0.42 µg/m3 110.13 µg/m3 N/A N/A 23.73 °C 87.08 % 1,002.59 mbar 1.65 m/s 228.22 Deg 0.06 µg/m3
2022-07-15 00:00 0 µg/m3 0.45 µg/m3 113.16 µg/m3 N/A N/A 23.9 °C 87.7 % 1,003.01 mbar 2.08 m/s 228.82 Deg 0.06 µg/m3
2022-07-14 23:00 -0.21 µg/m3 0.41 µg/m3 107.23 µg/m3 N/A N/A 24.15 °C 84.33 % 1,003.34 mbar 2.47 m/s 249.38 Deg 0.07 µg/m3
2022-07-14 22:00 -0.24 µg/m3 0.38 µg/m3 102.56 µg/m3 N/A N/A 24.25 °C 84.47 % 1,003.42 mbar 2.03 m/s 254.76 Deg 0.07 µg/m3
2022-07-14 21:00 0.13 µg/m3 0.4 µg/m3 103.94 µg/m3 N/A N/A 24.42 °C 82.58 % 1,003.27 mbar 2.56 m/s 272.38 Deg 0.08 µg/m3
2022-07-14 20:00 -0.24 µg/m3 0.39 µg/m3 102.78 µg/m3 N/A N/A 24.96 °C 77.61 % 1,003.13 mbar 2.77 m/s 263.9 Deg 0.07 µg/m3
2022-07-14 19:00 0.18 µg/m3 0.41 µg/m3 97.48 µg/m3 N/A N/A 25.83 °C 67.44 % 1,003.40 mbar 3.16 m/s 187.55 Deg 0.08 µg/m3
2022-07-14 18:00 0.24 µg/m3 0.43 µg/m3 103.69 µg/m3 N/A N/A 26.27 °C 61.05 % 1,003.55 mbar 3.84 m/s 230.4 Deg 0.11 µg/m3
2022-07-14 17:00 -0.11 µg/m3 0.56 µg/m3 103.61 µg/m3 N/A N/A 26.44 °C 65.59 % 1,003.80 mbar 4.55 m/s 115.69 Deg 0.08 µg/m3
2022-07-14 16:00 0.14 µg/m3 0.74 µg/m3 112.86 µg/m3 N/A N/A 26.46 °C 69.17 % 1,004.43 mbar 4.42 m/s 157.1 Deg 0.09 µg/m3
2022-07-14 15:00 0.47 µg/m3 0.83 µg/m3 125.36 µg/m3 N/A N/A 26.56 °C 66.18 % 1,005.14 mbar 3.24 m/s 175.26 Deg 0.12 µg/m3
2022-07-14 14:00 0.18 µg/m3 0.69 µg/m3 113.9 µg/m3 N/A N/A 26.34 °C 72.02 % 1,005.51 mbar 2.62 m/s 231.47 Deg 0.1 µg/m3
2022-07-14 13:00 0.25 µg/m3 0.73 µg/m3 114.92 µg/m3 N/A N/A 25.92 °C 73.83 % 1,005.76 mbar 3.29 m/s 234.24 Deg 0.1 µg/m3
2022-07-14 12:00 0.25 µg/m3 0.72 µg/m3 113 µg/m3 N/A N/A 25.98 °C 75.23 % 1,005.99 mbar 3.23 m/s 209.77 Deg 0.12 µg/m3
2022-07-14 11:00 0.28 µg/m3 0.77 µg/m3 111.85 µg/m3 N/A N/A 25.89 °C 78.28 % N/A 2.91 m/s 215.6 Deg 0.1 µg/m3
2022-07-14 10:00 1.33 µg/m3 1.09 µg/m3 123.15 µg/m3 N/A N/A 25.51 °C 81.34 % N/A 2.81 m/s 243.7 Deg 0.16 µg/m3
2022-07-14 09:00 2.16 µg/m3 1.22 µg/m3 126.95 µg/m3 N/A N/A 25.26 °C 80.95 % N/A 2.65 m/s 275.63 Deg 0.19 µg/m3
2022-07-14 08:00 2.08 µg/m3 1.4 µg/m3 125.87 µg/m3 N/A N/A 25.1 °C 79.31 % N/A 1.38 m/s 269.62 Deg 0.18 µg/m3
2022-07-14 07:00 2.23 µg/m3 1.09 µg/m3 116.04 µg/m3 N/A N/A 24.81 °C 83.42 % N/A 0.78 m/s 147.93 Deg 0.16 µg/m3
2022-07-14 06:00 2.61 µg/m3 1.11 µg/m3 116.21 µg/m3 N/A N/A 23.72 °C 86.22 % N/A 0.85 m/s 184.12 Deg 0.1 µg/m3
2022-07-14 05:00 1.97 µg/m3 1.01 µg/m3 118.9 µg/m3 N/A N/A 23.71 °C 86.61 % N/A 0.72 m/s 208.49 Deg 0.07 µg/m3
2022-07-14 04:00 2.06 µg/m3 0.98 µg/m3 121.5 µg/m3 N/A N/A 23.91 °C 85.13 % N/A 0.61 m/s 275.28 Deg 0.07 µg/m3
2022-07-14 03:00 3.71 µg/m3 0.99 µg/m3 116.85 µg/m3 N/A N/A 24.02 °C 84.75 % N/A 0.84 m/s 235.07 Deg 0.07 µg/m3
2022-07-14 02:00 4 µg/m3 0.89 µg/m3 114.33 µg/m3 N/A N/A 24.19 °C 83.11 % N/A 1.38 m/s 196.11 Deg 0.07 µg/m3
2022-07-14 01:00 4.67 µg/m3 0.64 µg/m3 105.69 µg/m3 N/A N/A 24.31 °C 85.2 % N/A 1.81 m/s 177.46 Deg 0.09 µg/m3
2022-07-14 00:00 4.64 µg/m3 0.56 µg/m3 102.91 µg/m3 N/A N/A 24.48 °C 84.32 % N/A 1.59 m/s 130.91 Deg 0.08 µg/m3
2022-07-13 23:00 3.91 µg/m3 0.51 µg/m3 101.68 µg/m3 N/A N/A 24.5 °C 85.07 % N/A 2.17 m/s 107.99 Deg 0.09 µg/m3
2022-07-13 22:00 1.91 µg/m3 0.59 µg/m3 105.16 µg/m3 N/A N/A 24.65 °C 84.33 % N/A 2.39 m/s 142.78 Deg 0.07 µg/m3
2022-07-13 21:00 0.75 µg/m3 0.59 µg/m3 106.14 µg/m3 N/A N/A 24.87 °C 82.12 % N/A 2.26 m/s 70.5 Deg 0.13 µg/m3
2022-07-13 20:00 1.46 µg/m3 0.65 µg/m3 107.26 µg/m3 N/A N/A 25.18 °C 81.72 % N/A 3.65 m/s 39.54 Deg 0.11 µg/m3
2022-07-13 19:00 3.36 µg/m3 0.76 µg/m3 113.74 µg/m3 N/A N/A 25.73 °C 79.61 % N/A 4.22 m/s 108.44 Deg 0.3 µg/m3
2022-07-13 18:00 2 µg/m3 0.95 µg/m3 131.33 µg/m3 N/A N/A 25.74 °C 76.28 % N/A 4.24 m/s 254.32 Deg 0.21 µg/m3
2022-07-13 17:00 1.34 µg/m3 1.35 µg/m3 135.03 µg/m3 N/A N/A 26.16 °C 73.2 % N/A 2.87 m/s 276.35 Deg 0.16 µg/m3
2022-07-13 16:00 0.93 µg/m3 1.27 µg/m3 131.44 µg/m3 N/A N/A 26.56 °C 70.7 % N/A 2.82 m/s 199.05 Deg 0.13 µg/m3
2022-07-13 15:00 2.12 µg/m3 1.34 µg/m3 133.18 µg/m3 N/A N/A 26.4 °C 71.73 % N/A 3.33 m/s 278.24 Deg 0.26 µg/m3
2022-07-13 14:00 1.33 µg/m3 1.06 µg/m3 126.25 µg/m3 N/A N/A 25.96 °C 73.4 % N/A 4 m/s 218.2 Deg 0.16 µg/m3
2022-07-13 13:00 4.1 µg/m3 0.83 µg/m3 109.92 µg/m3 N/A N/A 25.89 °C 73.84 % N/A 4.76 m/s 224.38 Deg 0.88 µg/m3
2022-07-13 12:00 3.53 µg/m3 1.18 µg/m3 103.36 µg/m3 N/A N/A 25.85 °C 73.88 % N/A 5.1 m/s 296.15 Deg 0.81 µg/m3
2022-07-13 11:00 8.44 µg/m3 1.66 µg/m3 87.59 µg/m3 N/A N/A 25.58 °C 74.91 % N/A 4.26 m/s 264.57 Deg 2.32 µg/m3
2022-07-13 10:00 11.2 µg/m3 1.21 µg/m3 74.29 µg/m3 N/A N/A 25.12 °C 81.21 % N/A 3.79 m/s 254.7 Deg 3.31 µg/m3
2022-07-13 09:00 9.52 µg/m3 1.02 µg/m3 74.48 µg/m3 N/A N/A 24.95 °C 80.78 % N/A 3.21 m/s 298.36 Deg 2.64 µg/m3
2022-07-13 08:00 11.91 µg/m3 0.87 µg/m3 68.89 µg/m3 N/A N/A 24.74 °C 80.56 % N/A 2.73 m/s 282.82 Deg 2.92 µg/m3
2022-07-13 07:00 4.44 µg/m3 0.54 µg/m3 69.85 µg/m3 N/A N/A 24.13 °C 85.34 % N/A 1.93 m/s 332.06 Deg 0.64 µg/m3
2022-07-13 06:00 6.23 µg/m3 0.49 µg/m3 61.8 µg/m3 N/A N/A 23.46 °C 90.43 % N/A 1.83 m/s 335.83 Deg 0.27 µg/m3
2022-07-13 05:00 4.67 µg/m3 0.32 µg/m3 63.08 µg/m3 N/A N/A 23.13 °C 92.88 % N/A 2.45 m/s 344.96 Deg 0.08 µg/m3
2022-07-13 04:00 2.95 µg/m3 0.29 µg/m3 65.42 µg/m3 N/A N/A 23.13 °C 95.96 % N/A 1.89 m/s 313.38 Deg 0.07 µg/m3
2022-07-13 03:00 4.85 µg/m3 0.37 µg/m3 66.32 µg/m3 N/A N/A 23.15 °C 95.53 % N/A 1.45 m/s 302.71 Deg 0.09 µg/m3
2022-07-13 02:00 8.49 µg/m3 0.38 µg/m3 58.5 µg/m3 N/A N/A 23.37 °C 93.63 % N/A 1.85 m/s 333.32 Deg 0.08 µg/m3
2022-07-13 01:00 4.91 µg/m3 0.27 µg/m3 63.99 µg/m3 N/A N/A 23.48 °C 92.32 % N/A 2.54 m/s 346.29 Deg 0.08 µg/m3
2022-07-13 00:00 0.52 µg/m3 0.27 µg/m3 76.7 µg/m3 N/A N/A 23.64 °C 91.97 % N/A 2.61 m/s 266.23 Deg 0.08 µg/m3
2022-07-12 23:00 7.24 µg/m3 0.31 µg/m3 67.17 µg/m3 N/A N/A 23.77 °C 90.39 % N/A 2.73 m/s 351.34 Deg 0.09 µg/m3
2022-07-12 22:00 0.27 µg/m3 0.24 µg/m3 79.66 µg/m3 N/A N/A 23.88 °C 90.53 % N/A 2.45 m/s 339.96 Deg 0.07 µg/m3
2022-07-12 21:00 -0.41 µg/m3 0.24 µg/m3 78.19 µg/m3 N/A N/A 24.18 °C 88.29 % N/A 2.7 m/s 325.96 Deg 0.07 µg/m3
2022-07-12 20:00 -0.46 µg/m3 0.31 µg/m3 84.41 µg/m3 N/A N/A 24.59 °C 85.05 % N/A 3.04 m/s 312.39 Deg 0.07 µg/m3
2022-07-12 19:00 -0.36 µg/m3 0.36 µg/m3 85.72 µg/m3 N/A N/A 25.22 °C 80.98 % N/A 3.71 m/s 273.67 Deg 0.08 µg/m3
2022-07-12 18:00 -0.29 µg/m3 0.42 µg/m3 90.68 µg/m3 N/A N/A 25.53 °C 78.26 % N/A 4.63 m/s 188.47 Deg 0.09 µg/m3
2022-07-12 17:00 -0.22 µg/m3 0.55 µg/m3 95.37 µg/m3 N/A N/A 25.99 °C 74.87 % N/A 5.13 m/s 198.84 Deg 0.1 µg/m3
2022-07-12 16:00 0 µg/m3 0.61 µg/m3 104.43 µg/m3 N/A N/A 26.63 °C 70.77 % N/A 5.34 m/s 197.95 Deg 0.11 µg/m3
2022-07-12 15:00 -0.07 µg/m3 0.6 µg/m3 107.75 µg/m3 N/A N/A 27.14 °C 65.11 % N/A 4.58 m/s 163.36 Deg 0.11 µg/m3
2022-07-12 14:00 0.23 µg/m3 0.72 µg/m3 117.45 µg/m3 N/A N/A 26.96 °C 65.22 % N/A 3.68 m/s 159.65 Deg 0.12 µg/m3
2022-07-12 13:00 0.51 µg/m3 0.9 µg/m3 121.64 µg/m3 N/A N/A 27.1 °C 61.33 % N/A 3.09 m/s 165.17 Deg 0.14 µg/m3
2022-07-12 12:00 0.66 µg/m3 0.75 µg/m3 118.82 µg/m3 N/A N/A 26.69 °C 62.75 % N/A 3 m/s 287.47 Deg 0.16 µg/m3
2022-07-12 11:00 0.19 µg/m3 0.61 µg/m3 109.74 µg/m3 N/A N/A 26.4 °C 64.13 % N/A 2.78 m/s 235.6 Deg 0.12 µg/m3
2022-07-12 10:00 0.27 µg/m3 0.49 µg/m3 108.15 µg/m3 N/A N/A 25.81 °C 69.9 % N/A 2.95 m/s 252.23 Deg 0.14 µg/m3
2022-07-12 09:00 0.47 µg/m3 0.38 µg/m3 109.85 µg/m3 N/A N/A 25.82 °C 69.55 % N/A 3.49 m/s 246.91 Deg 0.18 µg/m3
2022-07-12 08:00 2.14 µg/m3 0.46 µg/m3 104.45 µg/m3 N/A N/A 25.41 °C 72.4 % N/A 2.46 m/s 65.07 Deg 0.39 µg/m3
2022-07-12 07:00 2.26 µg/m3 0.32 µg/m3 94.43 µg/m3 N/A N/A 24.65 °C 80.98 % N/A 2.23 m/s 101.59 Deg 0.34 µg/m3
2022-07-12 06:00 2.89 µg/m3 0.31 µg/m3 81.59 µg/m3 N/A N/A 23.94 °C 82.1 % N/A 1.4 m/s 60.78 Deg 0.18 µg/m3
2022-07-12 05:00 2.44 µg/m3 0.23 µg/m3 81.01 µg/m3 N/A N/A 23.73 °C 83.25 % N/A 1.56 m/s 56.01 Deg 0.07 µg/m3
2022-07-12 04:00 3.4 µg/m3 0.3 µg/m3 79.77 µg/m3 N/A N/A 23.83 °C 83.09 % N/A 1 m/s 46.33 Deg 0.07 µg/m3
2022-07-12 03:00 8.6 µg/m3 0.36 µg/m3 74.87 µg/m3 N/A N/A 23.96 °C 81.87 % N/A 1.32 m/s 39.71 Deg 0.08 µg/m3
2022-07-12 02:00 7.98 µg/m3 0.39 µg/m3 76.93 µg/m3 N/A N/A 24.24 °C 80.06 % N/A 0.55 m/s 142.4 Deg 0.07 µg/m3
2022-07-12 01:00 4.68 µg/m3 0.36 µg/m3 84.61 µg/m3 N/A N/A 24.26 °C 79.68 % N/A 0.49 m/s 144.74 Deg 0.08 µg/m3
2022-07-12 00:00 5.3 µg/m3 0.47 µg/m3 85.5 µg/m3 N/A N/A 24.66 °C 75.61 % N/A 0.91 m/s 142.72 Deg 0.07 µg/m3
2022-07-11 23:00 1.37 µg/m3 0.36 µg/m3 93.87 µg/m3 N/A N/A 24.77 °C 73.15 % N/A 2.12 m/s 152.64 Deg 0.06 µg/m3
2022-07-11 22:00 3.21 µg/m3 0.34 µg/m3 89.86 µg/m3 N/A N/A 24.91 °C 75.92 % N/A 2.64 m/s 94.29 Deg 0.08 µg/m3
2022-07-11 21:00 1.98 µg/m3 0.36 µg/m3 91.39 µg/m3 N/A N/A 24.88 °C 74.31 % N/A 1 m/s 156 Deg 0.07 µg/m3
2022-07-11 20:00 0.29 µg/m3 0.35 µg/m3 102 µg/m3 N/A N/A 25 °C 70.5 % N/A 0.97 m/s 163.96 Deg 0.05 µg/m3
2022-07-11 19:00 0.19 µg/m3 0.39 µg/m3 103.1 µg/m3 N/A N/A 25.58 °C 67.93 % N/A 1.79 m/s 160.99 Deg 0.06 µg/m3
2022-07-11 18:00 0.19 µg/m3 0.42 µg/m3 103.23 µg/m3 N/A N/A 25.9 °C 65.72 % N/A 2.25 m/s 161.85 Deg 0.07 µg/m3
2022-07-11 17:00 0.15 µg/m3 0.41 µg/m3 102.42 µg/m3 N/A N/A 25.92 °C 66.61 % N/A 3.01 m/s 140.41 Deg 0.08 µg/m3
2022-07-11 16:00 0.27 µg/m3 0.45 µg/m3 104.03 µg/m3 N/A N/A 26.21 °C 67.45 % N/A 2.45 m/s 217.51 Deg 0.18 µg/m3
2022-07-11 15:00 0.14 µg/m3 0.45 µg/m3 106.82 µg/m3 N/A N/A 25.48 °C 69.88 % N/A 2.65 m/s 251.42 Deg 0.09 µg/m3
2022-07-11 14:00 0.16 µg/m3 0.48 µg/m3 105.98 µg/m3 N/A N/A 25.42 °C 70.22 % N/A 3.24 m/s 273.07 Deg 0.09 µg/m3
2022-07-11 13:00 0.1 µg/m3 0.48 µg/m3 107.94 µg/m3 N/A N/A 25.42 °C 69.89 % N/A 4.95 m/s 179.44 Deg 0.07 µg/m3
2022-07-11 12:00 0.12 µg/m3 0.55 µg/m3 110.82 µg/m3 N/A N/A 25.29 °C 70.7 % N/A 4.59 m/s 127.98 Deg 0.08 µg/m3
2022-07-11 11:00 0.34 µg/m3 0.63 µg/m3 115.21 µg/m3 N/A N/A 24.8 °C 72.21 % N/A 3.36 m/s 165.45 Deg 0.1 µg/m3
2022-07-11 10:00 0.61 µg/m3 0.64 µg/m3 114.59 µg/m3 N/A N/A 24.59 °C 74.29 % N/A 2.76 m/s 130.65 Deg 0.12 µg/m3
2022-07-11 09:00 0.81 µg/m3 0.6 µg/m3 0 µg/m3 N/A N/A 24.45 °C 74.51 % N/A 3.28 m/s 130.53 Deg 0.12 µg/m3
2022-07-11 08:00 0 µg/m3 0 µg/m3 0 µg/m3 N/A N/A 24.18 °C 74.8 % N/A 3.62 m/s 179.15 Deg 0 µg/m3
2022-07-11 07:00 2.29 µg/m3 0.69 µg/m3 95.6 µg/m3 N/A N/A 23.73 °C 77.38 % N/A 3.9 m/s 123.81 Deg 0.25 µg/m3
2022-07-11 06:00 0.49 µg/m3 0.48 µg/m3 96.96 µg/m3 N/A N/A 23.28 °C 79.48 % N/A 4.01 m/s 224.43 Deg 0.08 µg/m3
2022-07-11 05:00 0.61 µg/m3 0.52 µg/m3 99.32 µg/m3 N/A N/A 23.17 °C 82.87 % N/A 3.69 m/s 244.24 Deg 0.07 µg/m3
2022-07-11 04:00 1.8 µg/m3 0.64 µg/m3 94.35 µg/m3 N/A N/A 23.39 °C 79.65 % N/A 3.99 m/s 257.77 Deg 0.07 µg/m3
2022-07-11 03:00 5.22 µg/m3 0.68 µg/m3 94.21 µg/m3 N/A N/A 23.61 °C 80.69 % N/A 4.32 m/s 257.98 Deg 0.07 µg/m3
2022-07-11 02:00 3.14 µg/m3 0.55 µg/m3 98.41 µg/m3 N/A N/A 23.79 °C 80.43 % N/A 4.19 m/s 259.01 Deg 0.07 µg/m3
2022-07-11 01:00 0.5 µg/m3 0.43 µg/m3 113.21 µg/m3 N/A N/A 23.71 °C 86.57 % N/A 4.41 m/s 255.79 Deg 0.07 µg/m3
2022-07-11 00:00 0.53 µg/m3 0.43 µg/m3 111.17 µg/m3 N/A N/A 23.83 °C 84.3 % N/A 4.18 m/s 248.58 Deg 0.07 µg/m3
2022-07-10 23:00 0.27 µg/m3 0.47 µg/m3 110.43 µg/m3 N/A N/A 23.9 °C 82.59 % N/A 3.68 m/s 246.69 Deg 0.07 µg/m3
2022-07-10 22:00 0.44 µg/m3 0.41 µg/m3 106.08 µg/m3 N/A N/A 23.97 °C 80.84 % N/A 2.47 m/s 260.33 Deg 0.06 µg/m3

It is to be noted that the data is provisional and subject to quality assurance procedures. For validated data kindly refer your request to contact.air@era.org.mt